Time,TemperatureF,DewpointF,PressureIn,WindDirection,WindDirectionDegrees,WindSpeedMPH,WindSpeedGustMPH,Humidity,HourlyPrecipIn,Conditions,Clouds,dailyrainin,SolarRadiationWatts/m^2,SoftwareType,DateUTC
2013-05-27 00:01:00,55.7,54.3,30.14,SE,134,5.5,5.5,95,0.07,,,0.00,0.00,VWS V14.01,2013-05-27 05:01:00,
2013-05-27 00:03:00,55.7,54.3,30.14,East,89,2.2,6.6,95,0.07,,,0.00,0.00,VWS V14.01,2013-05-27 05:03:00,
2013-05-27 00:04:00,55.7,54.3,30.14,ESE,108,5.5,6.6,95,0.07,,,0.00,0.00,VWS V14.01,2013-05-27 05:04:00,
2013-05-27 00:06:00,55.7,54.3,30.14,SE,133,5.5,7.7,95,0.07,,,0.00,0.00,VWS V14.01,2013-05-27 05:06:00,
2013-05-27 00:08:00,55.7,54.3,30.14,South,180,1.1,7.7,95,0.08,,,0.01,0.00,VWS V14.01,2013-05-27 05:08:00,
2013-05-27 00:10:00,55.7,54.3,30.14,ESE,120,3.3,7.7,95,0.08,,,0.01,0.00,VWS V14.01,2013-05-27 05:10:00,
2013-05-27 00:12:00,55.7,54.3,30.15,SE,127,0.0,4.4,95,0.06,,,0.01,0.00,VWS V14.01,2013-05-27 05:12:00,
2013-05-27 00:13:00,55.7,54.3,30.15,SE,133,6.6,6.6,95,0.06,,,0.01,0.00,VWS V14.01,2013-05-27 05:13:00,
2013-05-27 00:15:00,55.7,54.3,30.15,ESE,111,3.3,6.6,95,0.06,,,0.01,0.00,VWS V14.01,2013-05-27 05:15:00,
2013-05-27 00:17:00,55.7,54.3,30.15,SE,129,2.2,7.7,95,0.06,,,0.01,0.00,VWS V14.01,2013-05-27 05:17:00,
2013-05-27 00:18:00,55.7,54.3,30.15,SE,137,1.1,7.7,95,0.07,,,0.02,0.00,VWS V14.01,2013-05-27 05:18:00,
2013-05-27 00:19:00,55.7,54.3,30.15,SSE,147,2.2,7.7,95,0.07,,,0.02,0.00,VWS V14.01,2013-05-27 05:19:00,
2013-05-27 00:20:00,55.7,54.3,30.15,SSE,150,5.5,7.7,95,0.07,,,0.02,0.00,VWS V14.01,2013-05-27 05:20:00,
2013-05-27 00:21:00,55.7,54.3,30.15,SE,137,0.0,5.5,95,0.05,,,0.02,0.00,VWS V14.01,2013-05-27 05:21:00,
2013-05-27 00:23:00,55.7,54.3,30.15,SE,138,0.0,5.5,95,0.05,,,0.02,0.00,VWS V14.01,2013-05-27 05:23:00,
2013-05-27 00:25:00,55.8,54.4,30.15,ESE,102,1.1,5.5,95,0.05,,,0.02,0.00,VWS V14.01,2013-05-27 05:25:00,
2013-05-27 00:28:00,55.8,54.4,30.15,ESE,113,5.5,5.5,95,0.05,,,0.02,0.00,VWS V14.01,2013-05-27 05:28:00,
2013-05-27 00:30:00,55.8,54.4,30.16,ESE,108,2.2,5.5,95,0.05,,,0.02,0.00,VWS V14.01,2013-05-27 05:30:00,
2013-05-27 00:31:00,55.8,54.4,30.16,ESE,122,1.1,2.2,95,0.04,,,0.02,0.00,VWS V14.01,2013-05-27 05:31:00,
2013-05-27 00:34:00,55.8,54.4,30.15,SSE,147,1.1,4.4,95,0.04,,,0.02,0.00,VWS V14.01,2013-05-27 05:34:00,
2013-05-27 00:37:00,55.9,54.5,30.15,ENE,64,1.1,5.5,95,0.05,,,0.03,0.00,VWS V14.01,2013-05-27 05:37:00,
2013-05-27 00:39:00,55.8,54.4,30.15,SE,145,1.1,6.6,95,0.05,,,0.03,0.00,VWS V14.01,2013-05-27 05:39:00,
2013-05-27 00:40:00,55.9,54.5,30.15,SE,136,2.2,6.6,95,0.05,,,0.03,0.00,VWS V14.01,2013-05-27 05:40:00,
2013-05-27 00:41:00,55.9,54.5,30.15,ESE,116,2.2,5.5,95,0.05,,,0.03,0.00,VWS V14.01,2013-05-27 05:41:00,
2013-05-27 00:43:00,55.9,54.5,30.15,East,97,1.1,7.7,95,0.05,,,0.03,0.00,VWS V14.01,2013-05-27 05:43:00,
2013-05-27 00:44:00,55.9,54.5,30.15,ESE,103,1.1,7.7,95,0.05,,,0.03,0.00,VWS V14.01,2013-05-27 05:44:00,
2013-05-27 00:45:00,55.9,54.5,30.15,NE,55,4.4,7.7,95,0.05,,,0.03,0.00,VWS V14.01,2013-05-27 05:45:00,
2013-05-27 00:47:00,55.9,54.5,30.14,ESE,104,1.1,7.7,95,0.06,,,0.04,0.00,VWS V14.01,2013-05-27 05:47:00,
2013-05-27 00:48:00,55.9,54.5,30.14,East,93,2.2,7.7,95,0.06,,,0.04,0.00,VWS V14.01,2013-05-27 05:48:00,
2013-05-27 00:49:00,55.9,54.5,30.14,East,95,1.1,7.7,95,0.06,,,0.04,0.00,VWS V14.01,2013-05-27 05:49:00,
2013-05-27 00:50:00,55.9,54.5,30.14,East,84,2.2,7.7,95,0.06,,,0.04,0.00,VWS V14.01,2013-05-27 05:50:00,
2013-05-27 00:52:00,55.9,54.5,30.14,East,79,0.0,3.3,95,0.05,,,0.04,0.00,VWS V14.01,2013-05-27 05:52:00,
2013-05-27 00:53:00,56.0,54.6,30.14,ENE,61,0.0,5.5,95,0.05,,,0.04,0.00,VWS V14.01,2013-05-27 05:53:00,
2013-05-27 00:54:00,56.0,54.6,30.14,ESE,105,1.1,7.7,95,0.05,,,0.04,0.00,VWS V14.01,2013-05-27 05:54:00,
2013-05-27 00:55:00,56.0,54.6,30.14,ESE,120,2.2,7.7,95,0.05,,,0.04,0.00,VWS V14.01,2013-05-27 05:55:00,
2013-05-27 00:56:00,56.0,54.6,30.14,ESE,120,0.0,7.7,95,0.05,,,0.04,0.00,VWS V14.01,2013-05-27 05:56:00,
2013-05-27 00:57:00,56.0,54.6,30.14,ENE,66,2.2,7.7,95,0.05,,,0.04,0.00,VWS V14.01,2013-05-27 05:57:00,
2013-05-27 00:59:00,56.0,54.6,30.14,ENE,78,1.1,7.7,95,0.06,,,0.05,0.00,VWS V14.01,2013-05-27 05:59:00,
2013-05-27 01:01:00,56.0,54.6,30.14,ESE,113,3.3,3.3,95,0.05,,,0.05,0.00,VWS V14.01,2013-05-27 06:01:00,
2013-05-27 01:02:00,56.0,54.6,30.14,SSE,152,4.4,5.5,95,0.05,,,0.05,0.00,VWS V14.01,2013-05-27 06:02:00,
2013-05-27 01:03:00,56.0,54.6,30.14,ENE,66,2.2,5.5,95,0.05,,,0.05,0.00,VWS V14.01,2013-05-27 06:03:00,
2013-05-27 01:04:00,56.0,54.6,30.14,ENE,77,0.0,5.5,95,0.05,,,0.05,0.00,VWS V14.01,2013-05-27 06:04:00,
2013-05-27 01:06:00,56.0,54.6,30.13,East,87,5.5,6.6,95,0.06,,,0.06,0.00,VWS V14.01,2013-05-27 06:06:00,
2013-05-27 01:08:00,56.0,54.6,30.13,SE,129,5.5,6.6,95,0.06,,,0.06,0.00,VWS V14.01,2013-05-27 06:08:00,
2013-05-27 01:11:00,56.0,54.6,30.13,ESE,102,5.5,5.5,95,0.05,,,0.06,0.00,VWS V14.01,2013-05-27 06:11:00,
2013-05-27 01:14:00,56.0,54.6,30.13,East,93,1.1,5.5,95,0.05,,,0.06,0.00,VWS V14.01,2013-05-27 06:14:00,
2013-05-27 01:17:00,56.0,54.9,30.13,ESE,106,3.3,7.7,96,0.05,,,0.06,0.00,VWS V14.01,2013-05-27 06:17:00,
2013-05-27 01:19:00,56.0,54.9,30.13,SE,135,3.3,7.7,96,0.06,,,0.07,0.00,VWS V14.01,2013-05-27 06:19:00,
2013-05-27 01:22:00,56.0,54.9,30.13,East,93,2.2,6.6,96,0.05,,,0.07,0.00,VWS V14.01,2013-05-27 06:22:00,
2013-05-27 01:23:00,56.0,54.9,30.13,East,83,1.1,6.6,96,0.05,,,0.07,0.00,VWS V14.01,2013-05-27 06:23:00,
2013-05-27 01:24:00,56.0,54.9,30.13,ESE,106,4.4,6.6,96,0.05,,,0.07,0.00,VWS V14.01,2013-05-27 06:24:00,
2013-05-27 01:25:00,56.0,54.9,30.13,ESE,108,3.3,6.6,96,0.05,,,0.07,0.00,VWS V14.01,2013-05-27 06:25:00,
2013-05-27 01:27:00,56.0,54.9,30.13,ESE,112,4.4,8.8,96,0.05,,,0.07,0.00,VWS V14.01,2013-05-27 06:27:00,
2013-05-27 01:28:00,56.0,54.9,30.13,ESE,105,2.2,8.8,96,0.05,,,0.07,0.00,VWS V14.01,2013-05-27 06:28:00,
2013-05-27 01:29:00,56.0,54.9,30.13,ENE,59,1.1,8.8,96,0.05,,,0.07,0.00,VWS V14.01,2013-05-27 06:29:00,
2013-05-27 01:30:00,56.0,54.9,30.13,East,90,1.1,8.8,96,0.05,,,0.07,0.00,VWS V14.01,2013-05-27 06:30:00,
2013-05-27 01:33:00,56.0,54.9,30.13,East,91,1.1,6.6,96,0.06,,,0.08,0.00,VWS V14.01,2013-05-27 06:33:00,
2013-05-27 01:35:00,56.0,54.9,30.12,East,96,3.3,6.6,96,0.06,,,0.08,0.00,VWS V14.01,2013-05-27 06:35:00,
2013-05-27 01:38:00,56.0,54.9,30.13,ESE,118,1.1,8.8,96,0.07,,,0.09,0.00,VWS V14.01,2013-05-27 06:38:00,
2013-05-27 01:40:00,56.0,54.9,30.12,East,85,1.1,8.8,96,0.07,,,0.09,0.00,VWS V14.01,2013-05-27 06:40:00,
2013-05-27 01:41:00,56.0,54.9,30.12,ENE,57,0.0,3.3,96,0.06,,,0.09,0.00,VWS V14.01,2013-05-27 06:41:00,
2013-05-27 01:44:00,56.0,54.9,30.12,SE,125,4.4,5.5,96,0.07,,,0.10,0.00,VWS V14.01,2013-05-27 06:44:00,
2013-05-27 01:45:00,56.0,54.9,30.12,ESE,112,1.1,5.5,96,0.07,,,0.10,0.00,VWS V14.01,2013-05-27 06:45:00,
2013-05-27 01:46:00,56.0,54.9,30.12,ESE,112,0.0,5.5,96,0.07,,,0.10,0.00,VWS V14.01,2013-05-27 06:46:00,
2013-05-27 01:47:00,56.0,54.9,30.12,ENE,62,1.1,7.7,96,0.07,,,0.10,0.00,VWS V14.01,2013-05-27 06:47:00,
2013-05-27 01:49:00,56.0,54.9,30.12,ESE,118,0.0,7.7,96,0.07,,,0.10,0.00,VWS V14.01,2013-05-27 06:49:00,
2013-05-27 01:50:00,56.0,54.9,30.12,ESE,106,0.0,7.7,96,0.07,,,0.10,0.00,VWS V14.01,2013-05-27 06:50:00,
2013-05-27 01:51:00,56.0,54.9,30.12,ENE,69,4.4,5.5,96,0.06,,,0.10,0.00,VWS V14.01,2013-05-27 06:51:00,
2013-05-27 01:52:00,56.0,54.9,30.12,East,81,8.8,8.8,96,0.07,,,0.11,0.00,VWS V14.01,2013-05-27 06:52:00,
2013-05-27 01:54:00,56.0,54.9,30.12,ESE,102,1.1,8.8,96,0.07,,,0.11,0.00,VWS V14.01,2013-05-27 06:54:00,
2013-05-27 01:55:00,56.0,54.9,30.12,SE,137,3.3,8.8,96,0.07,,,0.11,0.00,VWS V14.01,2013-05-27 06:55:00,
2013-05-27 01:56:00,56.0,54.9,30.12,ESE,120,4.4,8.8,96,0.07,,,0.11,0.00,VWS V14.01,2013-05-27 06:56:00,
2013-05-27 01:57:00,56.0,54.9,30.12,SE,127,4.4,8.8,96,0.07,,,0.11,0.00,VWS V14.01,2013-05-27 06:57:00,
2013-05-27 02:00:00,56.0,54.9,30.12,ESE,105,2.2,8.8,96,0.07,,,0.11,0.00,VWS V14.01,2013-05-27 07:00:00,
2013-05-27 02:02:00,56.0,54.9,30.12,SE,145,3.3,6.6,96,0.06,,,0.11,0.00,VWS V14.01,2013-05-27 07:02:00,
2013-05-27 02:03:00,56.0,54.9,30.12,East,81,2.2,6.6,96,0.07,,,0.12,0.00,VWS V14.01,2013-05-27 07:03:00,
2013-05-27 02:05:00,56.0,54.9,30.11,ENE,73,2.2,6.6,96,0.07,,,0.12,0.00,VWS V14.01,2013-05-27 07:05:00,
2013-05-27 02:06:00,56.0,54.9,30.11,SSE,151,1.1,6.6,96,0.07,,,0.12,0.00,VWS V14.01,2013-05-27 07:06:00,
2013-05-27 02:08:00,56.0,54.9,30.11,East,89,2.2,6.6,96,0.07,,,0.12,0.00,VWS V14.01,2013-05-27 07:08:00,
2013-05-27 02:10:00,56.0,54.9,30.12,ESE,116,3.3,6.6,96,0.07,,,0.12,0.00,VWS V14.01,2013-05-27 07:10:00,
2013-05-27 02:12:00,56.1,55.0,30.11,East,82,2.2,5.5,96,0.06,,,0.12,0.00,VWS V14.01,2013-05-27 07:12:00,
2013-05-27 02:13:00,56.1,55.0,30.12,East,94,0.0,5.5,96,0.06,,,0.12,0.00,VWS V14.01,2013-05-27 07:13:00,
2013-05-27 02:15:00,56.1,55.0,30.11,ESE,110,3.3,7.7,96,0.06,,,0.12,0.00,VWS V14.01,2013-05-27 07:15:00,
2013-05-27 02:16:00,56.1,55.0,30.11,ESE,109,1.1,7.7,96,0.06,,,0.12,0.00,VWS V14.01,2013-05-27 07:16:00,
2013-05-27 02:18:00,56.1,55.0,30.11,NE,39,1.1,7.7,96,0.06,,,0.12,0.00,VWS V14.01,2013-05-27 07:18:00,
2013-05-27 02:19:00,56.1,55.0,30.11,ESE,107,7.7,7.7,96,0.06,,,0.12,0.00,VWS V14.01,2013-05-27 07:19:00,
2013-05-27 02:20:00,56.1,55.0,30.11,SE,129,4.4,7.7,96,0.06,,,0.12,0.00,VWS V14.01,2013-05-27 07:20:00,
2013-05-27 02:22:00,56.1,55.0,30.11,East,100,2.2,9.9,96,0.05,,,0.12,0.00,VWS V14.01,2013-05-27 07:22:00,
2013-05-27 02:23:00,56.1,55.0,30.11,East,87,3.3,9.9,96,0.05,,,0.12,0.00,VWS V14.01,2013-05-27 07:23:00,
2013-05-27 02:24:00,56.1,55.0,30.11,ENE,63,4.4,9.9,96,0.06,,,0.13,0.00,VWS V14.01,2013-05-27 07:24:00,
2013-05-27 02:25:00,56.1,55.0,30.11,East,91,3.3,9.9,96,0.06,,,0.13,0.00,VWS V14.01,2013-05-27 07:25:00,
2013-05-27 02:26:00,56.1,55.0,30.11,East,94,3.3,9.9,96,0.06,,,0.13,0.00,VWS V14.01,2013-05-27 07:26:00,
2013-05-27 02:28:00,56.1,55.0,30.11,NNE,33,2.2,9.9,96,0.06,,,0.13,0.00,VWS V14.01,2013-05-27 07:28:00,
2013-05-27 02:29:00,56.1,55.0,30.11,ENE,76,2.2,9.9,96,0.06,,,0.13,0.00,VWS V14.01,2013-05-27 07:29:00,
2013-05-27 02:30:00,56.1,55.0,30.11,ENE,57,2.2,9.9,96,0.06,,,0.13,0.00,VWS V14.01,2013-05-27 07:30:00,
2013-05-27 02:31:00,56.2,55.1,30.11,NE,49,3.3,3.3,96,0.05,,,0.13,0.00,VWS V14.01,2013-05-27 07:31:00,
2013-05-27 02:35:00,56.1,55.0,30.11,East,97,2.2,7.7,96,0.06,,,0.14,0.00,VWS V14.01,2013-05-27 07:35:00,
2013-05-27 02:36:00,56.2,55.1,30.11,ESE,122,5.5,7.7,96,0.06,,,0.14,0.00,VWS V14.01,2013-05-27 07:36:00,
2013-05-27 02:37:00,56.2,55.1,30.11,NE,41,4.4,7.7,96,0.06,,,0.14,0.00,VWS V14.01,2013-05-27 07:37:00,
2013-05-27 02:41:00,56.2,55.1,30.11,East,93,6.6,6.6,96,0.05,,,0.14,0.00,VWS V14.01,2013-05-27 07:41:00,
2013-05-27 02:42:00,56.2,55.1,30.11,ESE,103,5.5,7.7,96,0.05,,,0.14,0.00,VWS V14.01,2013-05-27 07:42:00,
2013-05-27 02:43:00,56.2,55.1,30.11,SE,131,3.3,7.7,96,0.05,,,0.14,0.00,VWS V14.01,2013-05-27 07:43:00,
2013-05-27 02:46:00,56.2,55.1,30.10,ESE,115,4.4,7.7,96,0.05,,,0.14,0.00,VWS V14.01,2013-05-27 07:46:00,
2013-05-27 02:47:00,56.2,55.1,30.10,East,87,5.5,9.9,96,0.06,,,0.15,0.00,VWS V14.01,2013-05-27 07:47:00,
2013-05-27 02:48:00,56.2,55.1,30.10,East,90,6.6,9.9,96,0.06,,,0.15,0.00,VWS V14.01,2013-05-27 07:48:00,
2013-05-27 02:51:00,56.2,55.1,30.10,SE,132,2.2,4.4,96,0.05,,,0.15,0.00,VWS V14.01,2013-05-27 07:51:00,
2013-05-27 02:52:00,56.2,55.1,30.10,NE,53,3.3,5.5,96,0.05,,,0.15,0.00,VWS V14.01,2013-05-27 07:52:00,
2013-05-27 02:53:00,56.2,55.1,30.10,SE,132,2.2,5.5,96,0.05,,,0.15,0.00,VWS V14.01,2013-05-27 07:53:00,
2013-05-27 02:54:00,56.2,55.1,30.10,ESE,123,3.3,5.5,96,0.05,,,0.15,0.00,VWS V14.01,2013-05-27 07:54:00,
2013-05-27 02:55:00,56.2,55.1,30.10,East,100,5.5,8.8,96,0.05,,,0.15,0.00,VWS V14.01,2013-05-27 07:55:00,
2013-05-27 02:56:00,56.2,55.1,30.10,SSE,147,2.2,8.8,96,0.05,,,0.15,0.00,VWS V14.01,2013-05-27 07:56:00,
2013-05-27 02:57:00,56.3,55.2,30.10,East,96,3.3,8.8,96,0.05,,,0.15,0.00,VWS V14.01,2013-05-27 07:57:00,
2013-05-27 02:58:00,56.2,55.1,30.10,ESE,118,7.7,8.8,96,0.05,,,0.15,0.00,VWS V14.01,2013-05-27 07:58:00,
2013-05-27 02:59:00,56.3,55.2,30.10,ESE,105,4.4,8.8,96,0.05,,,0.15,0.00,VWS V14.01,2013-05-27 07:59:00,
2013-05-27 03:01:00,56.3,55.2,30.10,ENE,77,2.2,8.8,96,0.05,,,0.16,0.00,VWS V14.01,2013-05-27 08:01:00,
2013-05-27 03:02:00,56.3,55.2,30.10,East,98,7.7,8.8,96,0.05,,,0.16,0.00,VWS V14.01,2013-05-27 08:02:00,
2013-05-27 03:03:00,56.3,55.2,30.10,ESE,114,3.3,8.8,96,0.05,,,0.16,0.00,VWS V14.01,2013-05-27 08:03:00,
2013-05-27 03:05:00,56.3,55.2,30.10,NE,38,3.3,8.8,96,0.05,,,0.16,0.00,VWS V14.01,2013-05-27 08:05:00,
2013-05-27 03:06:00,56.3,55.2,30.10,ESE,121,5.5,8.8,96,0.05,,,0.16,0.00,VWS V14.01,2013-05-27 08:06:00,
2013-05-27 03:07:00,56.3,55.2,30.10,ESE,120,4.4,8.8,96,0.05,,,0.16,0.00,VWS V14.01,2013-05-27 08:07:00,
2013-05-27 03:08:00,56.3,55.2,30.10,ESE,114,5.5,8.8,96,0.05,,,0.16,0.00,VWS V14.01,2013-05-27 08:08:00,
2013-05-27 03:11:00,56.3,55.5,30.10,SE,133,2.2,5.5,97,0.05,,,0.17,0.00,VWS V14.01,2013-05-27 08:11:00,
2013-05-27 03:12:00,56.3,55.5,30.10,SE,143,6.6,6.6,97,0.05,,,0.17,0.00,VWS V14.01,2013-05-27 08:12:00,
2013-05-27 03:13:00,56.3,55.5,30.10,ESE,120,1.1,6.6,97,0.05,,,0.17,0.00,VWS V14.01,2013-05-27 08:13:00,
2013-05-27 03:16:00,56.3,55.5,30.10,East,99,2.2,6.6,97,0.05,,,0.17,0.00,VWS V14.01,2013-05-27 08:16:00,
2013-05-27 03:18:00,56.4,55.6,30.10,ENE,57,4.4,9.9,97,0.06,,,0.18,0.00,VWS V14.01,2013-05-27 08:18:00,
2013-05-27 03:19:00,56.4,55.6,30.10,ESE,102,3.3,9.9,97,0.06,,,0.18,0.00,VWS V14.01,2013-05-27 08:19:00,
2013-05-27 03:20:00,56.4,55.6,30.09,ENE,57,1.1,9.9,97,0.06,,,0.18,0.00,VWS V14.01,2013-05-27 08:20:00,
2013-05-27 03:21:00,56.4,55.6,30.10,ESE,115,9.9,9.9,97,0.06,,,0.18,0.00,VWS V14.01,2013-05-27 08:21:00,
2013-05-27 03:23:00,56.4,55.6,30.10,ESE,109,7.7,9.9,97,0.06,,,0.18,0.00,VWS V14.01,2013-05-27 08:23:00,
2013-05-27 03:24:00,56.4,55.6,30.09,ESE,104,7.7,9.9,97,0.06,,,0.18,0.00,VWS V14.01,2013-05-27 08:24:00,
2013-05-27 03:26:00,56.4,55.6,30.09,SE,127,2.2,9.9,97,0.06,,,0.18,0.00,VWS V14.01,2013-05-27 08:26:00,
2013-05-27 03:27:00,56.4,55.6,30.09,ESE,108,5.5,9.9,97,0.06,,,0.18,0.00,VWS V14.01,2013-05-27 08:27:00,
2013-05-27 03:28:00,56.4,55.6,30.09,ENE,76,2.2,9.9,97,0.07,,,0.19,0.00,VWS V14.01,2013-05-27 08:28:00,
2013-05-27 03:29:00,56.4,55.6,30.09,SE,131,5.5,9.9,97,0.07,,,0.19,0.00,VWS V14.01,2013-05-27 08:29:00,
2013-05-27 03:32:00,56.4,55.6,30.09,East,83,3.3,7.7,97,0.06,,,0.19,0.00,VWS V14.01,2013-05-27 08:32:00,
2013-05-27 03:33:00,56.4,55.6,30.09,ESE,102,4.4,7.7,97,0.06,,,0.19,0.00,VWS V14.01,2013-05-27 08:33:00,
2013-05-27 03:34:00,56.4,55.6,30.09,NE,50,3.3,11.0,97,0.06,,,0.19,0.00,VWS V14.01,2013-05-27 08:34:00,
2013-05-27 03:37:00,56.4,55.6,30.09,East,99,5.5,11.0,97,0.06,,,0.19,0.00,VWS V14.01,2013-05-27 08:37:00,
2013-05-27 03:38:00,56.4,55.6,30.09,ENE,78,3.3,11.0,97,0.06,,,0.19,0.00,VWS V14.01,2013-05-27 08:38:00,
2013-05-27 03:40:00,56.4,55.6,30.09,SE,128,1.1,11.0,97,0.06,,,0.19,0.00,VWS V14.01,2013-05-27 08:40:00,
2013-05-27 03:43:00,56.4,55.6,30.09,SE,138,4.4,8.8,97,0.05,,,0.19,0.00,VWS V14.01,2013-05-27 08:43:00,
2013-05-27 03:44:00,56.4,55.6,30.09,SE,142,3.3,8.8,97,0.05,,,0.19,0.00,VWS V14.01,2013-05-27 08:44:00,
2013-05-27 03:46:00,56.5,55.7,30.09,East,79,3.3,8.8,97,0.05,,,0.19,0.00,VWS V14.01,2013-05-27 08:46:00,
2013-05-27 03:47:00,56.5,55.7,30.09,East,100,1.1,8.8,97,0.05,,,0.19,0.00,VWS V14.01,2013-05-27 08:47:00,
2013-05-27 03:48:00,56.5,55.7,30.09,ESE,109,2.2,8.8,97,0.05,,,0.19,0.00,VWS V14.01,2013-05-27 08:48:00,
2013-05-27 03:50:00,56.5,55.7,30.09,ENE,68,2.2,8.8,97,0.05,,,0.19,0.00,VWS V14.01,2013-05-27 08:50:00,
2013-05-27 03:51:00,56.5,55.7,30.09,ENE,78,1.1,5.5,97,0.04,,,0.19,0.00,VWS V14.01,2013-05-27 08:51:00,
2013-05-27 03:52:00,56.5,55.7,30.09,East,94,2.2,6.6,97,0.04,,,0.19,0.00,VWS V14.01,2013-05-27 08:52:00,
2013-05-27 03:54:00,56.5,55.7,30.09,ESE,115,4.4,8.8,97,0.05,,,0.20,0.00,VWS V14.01,2013-05-27 08:54:00,
2013-05-27 03:56:00,56.5,55.7,30.09,ESE,102,3.3,8.8,97,0.05,,,0.20,0.00,VWS V14.01,2013-05-27 08:56:00,
2013-05-27 03:58:00,56.5,55.7,30.09,ESE,109,2.2,8.8,97,0.06,,,0.21,0.00,VWS V14.01,2013-05-27 08:58:00,
2013-05-27 03:59:00,56.5,55.7,30.09,NE,37,4.4,8.8,97,0.06,,,0.21,0.00,VWS V14.01,2013-05-27 08:59:00,
2013-05-27 04:01:00,56.5,55.7,30.08,SSE,154,3.3,5.5,97,0.05,,,0.21,0.00,VWS V14.01,2013-05-27 09:01:00,
2013-05-27 04:02:00,56.5,55.7,30.08,NE,52,0.0,5.5,97,0.05,,,0.21,0.00,VWS V14.01,2013-05-27 09:02:00,
2013-05-27 04:03:00,56.6,55.8,30.08,NE,52,0.0,5.5,97,0.05,,,0.21,0.00,VWS V14.01,2013-05-27 09:03:00,
2013-05-27 04:04:00,56.5,55.7,30.08,ESE,104,5.5,8.8,97,0.05,,,0.21,0.00,VWS V14.01,2013-05-27 09:04:00,
2013-05-27 04:06:00,56.6,55.8,30.08,SE,130,3.3,9.9,97,0.06,,,0.22,0.00,VWS V14.01,2013-05-27 09:06:00,
2013-05-27 04:07:00,56.6,55.8,30.08,ESE,104,3.3,9.9,97,0.06,,,0.22,0.00,VWS V14.01,2013-05-27 09:07:00,
2013-05-27 04:09:00,56.6,55.8,30.08,NE,47,3.3,9.9,97,0.06,,,0.22,0.00,VWS V14.01,2013-05-27 09:09:00,
2013-05-27 04:13:00,56.6,55.8,30.08,East,100,1.1,6.6,97,0.05,,,0.22,0.00,VWS V14.01,2013-05-27 09:13:00,
2013-05-27 04:14:00,56.6,55.8,30.08,South,176,3.3,6.6,97,0.05,,,0.22,0.00,VWS V14.01,2013-05-27 09:14:00,
2013-05-27 04:15:00,56.6,55.8,30.08,SE,125,5.5,6.6,97,0.05,,,0.22,0.00,VWS V14.01,2013-05-27 09:15:00,
2013-05-27 04:18:00,56.6,55.8,30.08,ESE,122,5.5,8.8,97,0.05,,,0.22,0.00,VWS V14.01,2013-05-27 09:18:00,
2013-05-27 04:19:00,56.6,55.8,30.08,ESE,108,5.5,8.8,97,0.05,,,0.22,0.00,VWS V14.01,2013-05-27 09:19:00,
2013-05-27 04:20:00,56.6,55.8,30.08,East,88,8.8,8.8,97,0.04,,,0.22,0.00,VWS V14.01,2013-05-27 09:20:00,
2013-05-27 04:23:00,56.7,55.9,30.08,East,92,6.6,9.9,97,0.04,,,0.22,0.00,VWS V14.01,2013-05-27 09:23:00,
2013-05-27 04:24:00,56.6,55.8,30.08,SE,127,8.8,9.9,97,0.04,,,0.22,0.00,VWS V14.01,2013-05-27 09:24:00,
2013-05-27 04:25:00,56.6,55.8,30.08,ENE,77,3.3,9.9,97,0.04,,,0.22,0.00,VWS V14.01,2013-05-27 09:25:00,
2013-05-27 04:26:00,56.6,55.8,30.08,ESE,123,4.4,9.9,97,0.04,,,0.22,0.00,VWS V14.01,2013-05-27 09:26:00,
2013-05-27 04:29:00,56.6,55.8,30.07,ESE,106,7.7,12.1,97,0.05,,,0.23,0.00,VWS V14.01,2013-05-27 09:29:00,
2013-05-27 04:30:00,56.7,55.9,30.07,ESE,102,5.5,12.1,97,0.05,,,0.23,0.00,VWS V14.01,2013-05-27 09:30:00,
2013-05-27 04:31:00,56.6,55.8,30.07,ESE,122,2.2,3.3,97,0.04,,,0.23,0.00,VWS V14.01,2013-05-27 09:31:00,
2013-05-27 04:32:00,56.7,55.9,30.07,ESE,110,12.1,12.1,97,0.04,,,0.23,0.00,VWS V14.01,2013-05-27 09:32:00,
2013-05-27 04:35:00,56.7,55.9,30.07,East,96,2.2,14.3,97,0.05,,,0.24,0.00,VWS V14.01,2013-05-27 09:35:00,
2013-05-27 04:36:00,56.7,55.9,30.07,ESE,119,7.7,14.3,97,0.05,,,0.24,0.00,VWS V14.01,2013-05-27 09:36:00,
2013-05-27 04:37:00,56.7,55.9,30.07,ESE,118,4.4,14.3,97,0.05,,,0.24,0.00,VWS V14.01,2013-05-27 09:37:00,
2013-05-27 04:39:00,56.7,55.9,30.07,ESE,120,5.5,14.3,97,0.05,,,0.24,0.00,VWS V14.01,2013-05-27 09:39:00,
2013-05-27 04:41:00,56.7,55.9,30.07,ENE,70,4.4,8.8,97,0.05,,,0.24,0.00,VWS V14.01,2013-05-27 09:41:00,
2013-05-27 04:42:00,56.7,55.9,30.07,ESE,108,5.5,8.8,97,0.05,,,0.24,0.00,VWS V14.01,2013-05-27 09:42:00,
2013-05-27 04:43:00,56.7,55.9,30.07,ESE,116,4.4,8.8,97,0.06,,,0.25,0.00,VWS V14.01,2013-05-27 09:43:00,
2013-05-27 04:44:00,56.7,55.9,30.07,ESE,114,7.7,8.8,97,0.06,,,0.25,0.00,VWS V14.01,2013-05-27 09:44:00,
2013-05-27 04:47:00,56.7,55.9,30.07,ENE,77,8.8,11.0,97,0.07,,,0.26,0.00,VWS V14.01,2013-05-27 09:47:00,
2013-05-27 04:48:00,56.7,55.9,30.07,ESE,118,5.5,11.0,97,0.07,,,0.26,0.00,VWS V14.01,2013-05-27 09:48:00,
2013-05-27 04:51:00,56.7,55.9,30.07,ESE,111,5.5,5.5,97,0.07,,,0.26,0.00,VWS V14.01,2013-05-27 09:51:00,
2013-05-27 04:52:00,56.7,55.9,30.07,ESE,106,3.3,9.9,97,0.08,,,0.27,0.00,VWS V14.01,2013-05-27 09:52:00,
2013-05-27 04:53:00,56.7,55.9,30.07,SE,125,4.4,9.9,97,0.09,,,0.28,0.00,VWS V14.01,2013-05-27 09:53:00,
2013-05-27 04:57:00,56.7,55.9,30.07,East,95,3.3,9.9,97,0.10,,,0.29,0.00,VWS V14.01,2013-05-27 09:57:00,
2013-05-27 04:58:00,56.8,56.0,30.07,SE,143,13.2,13.2,97,0.11,,,0.30,0.00,VWS V14.01,2013-05-27 09:58:00,
2013-05-27 04:59:00,56.8,56.0,30.07,ESE,104,2.2,13.2,97,0.11,,,0.30,0.00,VWS V14.01,2013-05-27 09:59:00,
2013-05-27 05:03:00,56.8,56.0,30.07,East,85,3.3,9.9,97,0.10,,,0.31,0.00,VWS V14.01,2013-05-27 10:03:00,
2013-05-27 05:04:00,56.8,56.0,30.07,SE,136,4.4,9.9,97,0.10,,,0.31,0.00,VWS V14.01,2013-05-27 10:04:00,
2013-05-27 05:05:00,56.8,56.0,30.07,ESE,119,3.3,9.9,97,0.10,,,0.31,0.00,VWS V14.01,2013-05-27 10:05:00,
2013-05-27 05:09:00,56.8,56.0,30.07,SE,139,2.2,9.9,97,0.10,,,0.31,0.00,VWS V14.01,2013-05-27 10:09:00,
2013-05-27 05:10:00,56.8,56.0,30.07,ESE,113,7.7,9.9,97,0.10,,,0.31,0.00,VWS V14.01,2013-05-27 10:10:00,
2013-05-27 05:14:00,56.8,56.0,30.06,ENE,73,8.8,9.9,97,0.10,,,0.32,0.00,VWS V14.01,2013-05-27 10:14:00,
2013-05-27 05:15:00,56.8,56.0,30.06,ESE,123,7.7,9.9,97,0.10,,,0.32,0.00,VWS V14.01,2013-05-27 10:15:00,
2013-05-27 05:16:00,56.8,56.0,30.06,ESE,118,4.4,9.9,97,0.10,,,0.32,0.00,VWS V14.01,2013-05-27 10:16:00,
2013-05-27 05:17:00,56.8,56.0,30.06,ESE,117,7.7,9.9,97,0.10,,,0.32,0.00,VWS V14.01,2013-05-27 10:17:00,
2013-05-27 05:19:00,56.8,56.0,30.06,ESE,115,4.4,9.9,97,0.10,,,0.32,0.00,VWS V14.01,2013-05-27 10:19:00,
2013-05-27 05:20:00,56.8,56.0,30.06,ESE,123,3.3,9.9,97,0.10,,,0.32,0.00,VWS V14.01,2013-05-27 10:20:00,
2013-05-27 05:21:00,56.8,56.0,30.06,East,97,5.5,8.8,97,0.10,,,0.32,0.00,VWS V14.01,2013-05-27 10:21:00,
2013-05-27 05:23:00,56.9,56.1,30.06,ESE,102,9.9,9.9,97,0.10,,,0.32,0.00,VWS V14.01,2013-05-27 10:23:00,
2013-05-27 05:25:00,56.9,56.1,30.06,SSW,206,6.6,12.1,97,0.10,,,0.32,0.00,VWS V14.01,2013-05-27 10:25:00,
2013-05-27 05:26:00,56.9,56.1,30.06,SE,127,3.3,12.1,97,0.10,,,0.32,0.00,VWS V14.01,2013-05-27 10:26:00,
2013-05-27 05:29:00,56.9,56.1,30.06,SE,124,3.3,12.1,97,0.11,,,0.33,0.00,VWS V14.01,2013-05-27 10:29:00,
2013-05-27 05:30:00,56.9,56.1,30.06,ESE,118,7.7,12.1,97,0.11,,,0.33,0.00,VWS V14.01,2013-05-27 10:30:00,
2013-05-27 05:31:00,56.9,56.1,30.06,ESE,110,3.3,9.9,97,0.10,,,0.33,0.00,VWS V14.01,2013-05-27 10:31:00,
2013-05-27 05:32:00,56.9,56.1,30.06,ESE,116,5.5,9.9,97,0.10,,,0.33,0.00,VWS V14.01,2013-05-27 10:32:00,
2013-05-27 05:33:00,56.9,56.1,30.06,SSE,153,3.3,9.9,97,0.10,,,0.33,0.00,VWS V14.01,2013-05-27 10:33:00,
2013-05-27 05:34:00,56.9,56.1,30.06,ESE,122,7.7,11.0,97,0.10,,,0.33,0.00,VWS V14.01,2013-05-27 10:34:00,
2013-05-27 05:36:00,57.0,56.2,30.06,East,83,6.6,11.0,97,0.11,,,0.34,0.00,VWS V14.01,2013-05-27 10:36:00,
2013-05-27 05:38:00,57.0,56.2,30.05,ESE,104,5.5,11.0,97,0.11,,,0.34,0.00,VWS V14.01,2013-05-27 10:38:00,
2013-05-27 05:39:00,57.0,56.2,30.06,SE,125,8.8,11.0,97,0.11,,,0.34,0.00,VWS V14.01,2013-05-27 10:39:00,
2013-05-27 05:40:00,57.0,56.2,30.05,ESE,112,3.3,11.0,97,0.11,,,0.34,0.00,VWS V14.01,2013-05-27 10:40:00,
2013-05-27 05:41:00,57.0,56.2,30.06,SE,135,6.6,8.8,97,0.10,,,0.34,0.00,VWS V14.01,2013-05-27 10:41:00,
2013-05-27 05:44:00,57.1,56.3,30.06,East,95,9.9,11.0,97,0.10,,,0.34,0.00,VWS V14.01,2013-05-27 10:44:00,
2013-05-27 05:45:00,57.1,56.3,30.06,SE,125,7.7,11.0,97,0.10,,,0.34,0.00,VWS V14.01,2013-05-27 10:45:00,
2013-05-27 05:46:00,57.1,56.3,30.06,ESE,106,4.4,11.0,97,0.10,,,0.34,0.00,VWS V14.01,2013-05-27 10:46:00,
2013-05-27 05:47:00,57.1,56.3,30.06,ESE,115,5.5,11.0,97,0.10,,,0.34,0.00,VWS V14.01,2013-05-27 10:47:00,
2013-05-27 05:50:00,57.2,56.4,30.06,SE,139,7.7,11.0,97,0.10,,,0.34,0.00,VWS V14.01,2013-05-27 10:50:00,
2013-05-27 05:51:00,57.2,56.4,30.05,ESE,118,5.5,9.9,97,0.08,,,0.34,0.00,VWS V14.01,2013-05-27 10:51:00,
2013-05-27 05:53:00,57.3,56.5,30.05,ESE,108,2.2,9.9,97,0.08,,,0.34,0.00,VWS V14.01,2013-05-27 10:53:00,
2013-05-27 05:55:00,57.3,56.5,30.05,ESE,118,4.4,11.0,97,0.08,,,0.34,0.00,VWS V14.01,2013-05-27 10:55:00,
2013-05-27 05:56:00,57.3,56.5,30.05,SE,131,14.3,14.3,97,0.08,,,0.34,0.00,VWS V14.01,2013-05-27 10:56:00,
2013-05-27 05:57:00,57.3,56.5,30.05,SE,131,5.5,14.3,97,0.08,,,0.34,5.00,VWS V14.01,2013-05-27 10:57:00,
2013-05-27 05:59:00,57.4,56.6,30.05,East,87,1.1,14.3,97,0.08,,,0.34,5.00,VWS V14.01,2013-05-27 10:59:00,
2013-05-27 06:00:00,57.4,56.6,30.05,SSE,149,5.5,14.3,97,0.08,,,0.34,5.00,VWS V14.01,2013-05-27 11:00:00,
2013-05-27 06:01:00,57.4,56.6,30.05,ESE,111,9.9,14.3,97,0.04,,,0.34,7.00,VWS V14.01,2013-05-27 11:01:00,
2013-05-27 06:02:00,57.4,56.6,30.05,ESE,108,2.2,14.3,97,0.04,,,0.34,9.00,VWS V14.01,2013-05-27 11:02:00,
2013-05-27 06:03:00,57.5,56.7,30.05,East,97,0.0,14.3,97,0.04,,,0.34,7.00,VWS V14.01,2013-05-27 11:03:00,
2013-05-27 06:04:00,57.5,56.7,30.05,ESE,123,1.1,14.3,97,0.04,,,0.34,9.00,VWS V14.01,2013-05-27 11:04:00,
2013-05-27 06:07:00,57.5,56.7,30.05,SSE,167,9.9,14.3,97,0.04,,,0.34,12.00,VWS V14.01,2013-05-27 11:07:00,
2013-05-27 06:08:00,57.5,56.7,30.05,SE,140,5.5,14.3,97,0.04,,,0.34,12.00,VWS V14.01,2013-05-27 11:08:00,
2013-05-27 06:09:00,57.5,56.7,30.05,South,183,5.5,16.5,97,0.04,,,0.34,16.00,VWS V14.01,2013-05-27 11:09:00,
2013-05-27 06:10:00,57.6,56.8,30.05,SE,128,4.4,16.5,97,0.04,,,0.34,14.00,VWS V14.01,2013-05-27 11:10:00,
2013-05-27 06:13:00,57.6,56.8,30.05,ENE,76,7.7,11.0,97,0.03,,,0.34,14.00,VWS V14.01,2013-05-27 11:13:00,
2013-05-27 06:14:00,57.6,56.8,30.05,ESE,111,4.4,11.0,97,0.03,,,0.34,12.00,VWS V14.01,2013-05-27 11:14:00,
2013-05-27 06:15:00,57.6,56.8,30.05,ESE,108,1.1,11.0,97,0.03,,,0.34,12.00,VWS V14.01,2013-05-27 11:15:00,
2013-05-27 06:18:00,57.6,56.8,30.05,ESE,116,3.3,11.0,97,0.03,,,0.34,12.00,VWS V14.01,2013-05-27 11:18:00,
2013-05-27 06:19:00,57.6,56.8,30.05,ESE,116,5.5,11.0,97,0.03,,,0.34,12.00,VWS V14.01,2013-05-27 11:19:00,
2013-05-27 06:20:00,57.6,56.8,30.05,ESE,122,3.3,11.0,97,0.03,,,0.34,12.00,VWS V14.01,2013-05-27 11:20:00,
2013-05-27 06:21:00,57.6,56.8,30.05,SE,143,5.5,11.0,97,0.02,,,0.34,12.00,VWS V14.01,2013-05-27 11:21:00,
2013-05-27 06:23:00,57.6,56.8,30.05,East,91,0.0,11.0,97,0.02,,,0.34,14.00,VWS V14.01,2013-05-27 11:23:00,
2013-05-27 06:24:00,57.7,56.9,30.05,ESE,116,3.3,11.0,97,0.02,,,0.34,14.00,VWS V14.01,2013-05-27 11:24:00,
2013-05-27 06:25:00,57.7,56.9,30.05,South,172,9.9,13.2,97,0.02,,,0.34,12.00,VWS V14.01,2013-05-27 11:25:00,
2013-05-27 06:26:00,57.7,56.9,30.06,SE,138,3.3,13.2,97,0.02,,,0.34,12.00,VWS V14.01,2013-05-27 11:26:00,
2013-05-27 06:29:00,57.7,56.9,30.06,ESE,107,3.3,14.3,97,0.02,,,0.34,12.00,VWS V14.01,2013-05-27 11:29:00,
2013-05-27 06:31:00,57.7,56.9,30.06,ESE,115,4.4,8.8,97,0.02,,,0.35,9.00,VWS V14.01,2013-05-27 11:31:00,
2013-05-27 06:33:00,57.7,56.9,30.06,ESE,120,5.5,8.8,97,0.02,,,0.35,9.00,VWS V14.01,2013-05-27 11:33:00,
2013-05-27 06:34:00,57.7,56.9,30.06,ESE,102,3.3,8.8,97,0.03,,,0.36,9.00,VWS V14.01,2013-05-27 11:34:00,
2013-05-27 06:36:00,57.7,56.9,30.05,ESE,120,5.5,11.0,97,0.03,,,0.36,9.00,VWS V14.01,2013-05-27 11:36:00,
2013-05-27 06:37:00,57.7,56.9,30.05,East,100,2.2,11.0,97,0.03,,,0.36,9.00,VWS V14.01,2013-05-27 11:37:00,
2013-05-27 06:39:00,57.7,56.9,30.05,SE,143,4.4,11.0,97,0.04,,,0.37,11.00,VWS V14.01,2013-05-27 11:39:00,
2013-05-27 06:40:00,57.7,56.9,30.05,East,98,2.2,11.0,97,0.04,,,0.37,9.00,VWS V14.01,2013-05-27 11:40:00,
2013-05-27 06:42:00,57.7,56.9,30.05,NE,44,3.3,7.7,97,0.03,,,0.37,9.00,VWS V14.01,2013-05-27 11:42:00,
2013-05-27 06:43:00,57.7,56.9,30.05,ESE,114,7.7,7.7,97,0.03,,,0.37,9.00,VWS V14.01,2013-05-27 11:43:00,
2013-05-27 06:45:00,57.7,56.9,30.05,SE,133,3.3,9.9,97,0.03,,,0.37,9.00,VWS V14.01,2013-05-27 11:45:00,
2013-05-27 06:48:00,57.7,56.9,30.05,SE,128,4.4,11.0,97,0.04,,,0.38,7.00,VWS V14.01,2013-05-27 11:48:00,
2013-05-27 06:49:00,57.7,56.9,30.06,South,185,2.2,11.0,97,0.04,,,0.38,7.00,VWS V14.01,2013-05-27 11:49:00,
2013-05-27 06:50:00,57.7,56.9,30.05,East,91,2.2,11.0,97,0.04,,,0.38,7.00,VWS V14.01,2013-05-27 11:50:00,
2013-05-27 06:54:00,57.7,56.9,30.05,SE,129,3.3,7.7,97,0.05,,,0.39,9.00,VWS V14.01,2013-05-27 11:54:00,
2013-05-27 06:55:00,57.7,56.9,30.05,ENE,76,5.5,9.9,97,0.05,,,0.39,9.00,VWS V14.01,2013-05-27 11:55:00,
2013-05-27 06:56:00,57.7,56.9,30.05,ESE,118,3.3,9.9,97,0.05,,,0.39,9.00,VWS V14.01,2013-05-27 11:56:00,
2013-05-27 06:57:00,57.7,56.9,30.05,SSE,150,6.6,9.9,97,0.05,,,0.39,11.00,VWS V14.01,2013-05-27 11:57:00,
2013-05-27 06:59:00,57.7,56.9,30.05,ESE,108,0.0,9.9,97,0.05,,,0.39,11.00,VWS V14.01,2013-05-27 11:59:00,
2013-05-27 07:00:00,57.7,56.9,30.05,ESE,120,2.2,9.9,97,0.05,,,0.39,11.00,VWS V14.01,2013-05-27 12:00:00,
2013-05-27 07:01:00,57.7,56.9,30.05,ESE,102,3.3,7.7,97,0.05,,,0.39,11.00,VWS V14.01,2013-05-27 12:01:00,
2013-05-27 07:02:00,57.7,56.9,30.05,East,95,3.3,8.8,97,0.05,,,0.39,16.00,VWS V14.01,2013-05-27 12:02:00,
2013-05-27 07:04:00,57.7,56.9,30.05,East,97,7.7,8.8,97,0.35,,,0.69,18.00,VWS V14.01,2013-05-27 12:04:00,
2013-05-27 07:06:00,57.7,56.9,30.05,SE,126,5.5,9.9,97,0.35,,,0.69,19.00,VWS V14.01,2013-05-27 12:06:00,
2013-05-27 07:07:00,57.7,56.9,30.05,East,93,5.5,13.2,97,0.36,,,0.70,19.00,VWS V14.01,2013-05-27 12:07:00,
2013-05-27 07:10:00,57.7,56.9,30.05,ESE,123,1.1,13.2,97,0.36,,,0.70,19.00,VWS V14.01,2013-05-27 12:10:00,
2013-05-27 07:11:00,57.7,56.9,30.05,ESE,123,7.7,7.7,97,0.36,,,0.70,21.00,VWS V14.01,2013-05-27 12:11:00,
2013-05-27 07:12:00,57.7,56.9,30.05,ESE,121,5.5,9.9,97,0.36,,,0.70,19.00,VWS V14.01,2013-05-27 12:12:00,
2013-05-27 07:15:00,57.7,56.9,30.05,East,97,1.1,11.0,97,0.18,,,0.52,16.00,VWS V14.01,2013-05-27 12:15:00,
2013-05-27 07:16:00,57.7,56.9,30.05,East,91,1.1,11.0,97,0.18,,,0.52,16.00,VWS V14.01,2013-05-27 12:16:00,
2013-05-27 07:17:00,57.7,56.9,30.05,East,91,1.1,11.0,97,0.18,,,0.52,16.00,VWS V14.01,2013-05-27 12:17:00,
2013-05-27 07:18:00,57.7,56.9,30.05,SE,131,1.1,11.0,97,0.18,,,0.52,16.00,VWS V14.01,2013-05-27 12:18:00,
2013-05-27 07:19:00,57.7,56.9,30.05,East,100,5.5,11.0,97,0.18,,,0.52,18.00,VWS V14.01,2013-05-27 12:19:00,
2013-05-27 07:20:00,57.7,56.9,30.05,ESE,110,1.1,11.0,97,0.18,,,0.52,18.00,VWS V14.01,2013-05-27 12:20:00,
2013-05-27 07:21:00,57.7,56.9,30.05,SE,130,8.8,8.8,97,0.18,,,0.52,12.00,VWS V14.01,2013-05-27 12:21:00,
2013-05-27 07:23:00,57.7,56.9,30.05,ESE,107,1.1,8.8,97,0.18,,,0.52,12.00,VWS V14.01,2013-05-27 12:23:00,
2013-05-27 07:25:00,57.7,56.9,30.05,East,90,5.5,12.1,97,0.18,,,0.52,16.00,VWS V14.01,2013-05-27 12:25:00,
2013-05-27 07:27:00,57.7,56.9,30.05,ESE,115,9.9,12.1,97,0.18,,,0.52,16.00,VWS V14.01,2013-05-27 12:27:00,
2013-05-27 07:28:00,57.7,56.9,30.05,East,89,2.2,13.2,97,0.18,,,0.52,23.00,VWS V14.01,2013-05-27 12:28:00,
2013-05-27 07:29:00,57.7,56.9,30.05,ESE,103,2.2,13.2,97,0.18,,,0.52,26.00,VWS V14.01,2013-05-27 12:29:00,
2013-05-27 07:30:00,57.7,56.9,30.05,ESE,104,3.3,13.2,97,0.18,,,0.52,26.00,VWS V14.01,2013-05-27 12:30:00,
2013-05-27 07:32:00,57.7,56.9,30.05,South,174,4.4,8.8,97,0.17,,,0.52,21.00,VWS V14.01,2013-05-27 12:32:00,
2013-05-27 07:33:00,57.7,56.9,30.05,SE,143,8.8,12.1,97,0.17,,,0.52,21.00,VWS V14.01,2013-05-27 12:33:00,
2013-05-27 07:35:00,57.7,56.9,30.05,SE,128,5.5,12.1,97,0.17,,,0.52,30.00,VWS V14.01,2013-05-27 12:35:00,
2013-05-27 07:37:00,57.7,56.9,30.05,SE,131,5.5,12.1,97,0.17,,,0.52,21.00,VWS V14.01,2013-05-27 12:37:00,
2013-05-27 07:38:00,57.7,56.9,30.06,SSE,153,4.4,12.1,97,0.17,,,0.52,21.00,VWS V14.01,2013-05-27 12:38:00,
2013-05-27 07:40:00,57.7,56.9,30.05,ESE,107,3.3,12.1,97,0.17,,,0.52,21.00,VWS V14.01,2013-05-27 12:40:00,
2013-05-27 07:43:00,57.7,56.9,30.05,East,91,7.7,8.8,97,0.15,,,0.52,35.00,VWS V14.01,2013-05-27 12:43:00,
2013-05-27 07:44:00,57.6,56.8,30.05,ESE,111,11.0,11.0,97,0.15,,,0.52,33.00,VWS V14.01,2013-05-27 12:44:00,
2013-05-27 07:45:00,57.7,56.9,30.05,East,91,2.2,11.0,97,0.15,,,0.52,33.00,VWS V14.01,2013-05-27 12:45:00,
2013-05-27 07:46:00,57.7,56.9,30.05,East,92,5.5,11.0,97,0.15,,,0.52,33.00,VWS V14.01,2013-05-27 12:46:00,
2013-05-27 07:48:00,57.7,56.9,30.05,ENE,60,5.5,12.1,97,0.15,,,0.52,74.00,VWS V14.01,2013-05-27 12:48:00,
2013-05-27 07:51:00,57.7,56.9,30.05,East,97,6.6,8.8,97,0.14,,,0.52,69.00,VWS V14.01,2013-05-27 12:51:00,
2013-05-27 07:52:00,57.8,57.0,30.05,ESE,118,11.0,12.1,97,0.14,,,0.52,62.00,VWS V14.01,2013-05-27 12:52:00,
2013-05-27 07:53:00,57.8,57.0,30.05,ESE,113,3.3,12.1,97,0.14,,,0.52,74.00,VWS V14.01,2013-05-27 12:53:00,
2013-05-27 07:56:00,57.8,57.0,30.04,SE,137,6.6,12.1,97,0.14,,,0.52,93.00,VWS V14.01,2013-05-27 12:56:00,
2013-05-27 07:58:00,57.8,57.0,30.04,ESE,102,9.9,15.4,97,0.14,,,0.52,81.00,VWS V14.01,2013-05-27 12:58:00,
2013-05-27 08:00:00,57.8,57.0,30.04,ESE,110,5.5,15.4,97,0.14,,,0.52,76.00,VWS V14.01,2013-05-27 13:00:00,
2013-05-27 08:01:00,57.8,57.0,30.04,SSE,153,11.0,12.1,97,0.13,,,0.52,76.00,VWS V14.01,2013-05-27 13:01:00,
2013-05-27 08:02:00,57.9,57.1,30.04,ESE,123,3.3,12.1,97,0.13,,,0.52,70.00,VWS V14.01,2013-05-27 13:02:00,
2013-05-27 08:03:00,57.8,57.0,30.04,ESE,116,7.7,12.1,97,0.13,,,0.52,74.00,VWS V14.01,2013-05-27 13:03:00,
2013-05-27 08:07:00,57.9,57.1,30.04,ENE,72,8.8,12.1,97,0.13,,,0.52,84.00,VWS V14.01,2013-05-27 13:07:00,
2013-05-27 08:08:00,58.0,57.2,30.04,ESE,122,2.2,12.1,97,0.13,,,0.52,65.00,VWS V14.01,2013-05-27 13:08:00,
2013-05-27 08:10:00,57.8,57.0,30.04,ESE,115,2.2,13.2,97,0.13,,,0.52,46.00,VWS V14.01,2013-05-27 13:10:00,
2013-05-27 08:12:00,57.8,57.0,30.04,SE,127,3.3,14.3,97,0.00,,,0.52,51.00,VWS V14.01,2013-05-27 13:12:00,
2013-05-27 08:14:00,57.8,57.0,30.05,ESE,110,1.1,14.3,97,0.00,,,0.52,33.00,VWS V14.01,2013-05-27 13:14:00,
2013-05-27 08:15:00,57.8,57.0,30.05,East,97,8.8,14.3,97,0.00,,,0.52,35.00,VWS V14.01,2013-05-27 13:15:00,
2013-05-27 08:16:00,57.7,56.9,30.05,East,91,5.5,14.3,97,0.00,,,0.52,37.00,VWS V14.01,2013-05-27 13:16:00,
2013-05-27 08:17:00,57.7,56.9,30.05,East,89,11.0,14.3,97,0.00,,,0.52,33.00,VWS V14.01,2013-05-27 13:17:00,
2013-05-27 08:19:00,57.7,56.9,30.05,SE,139,5.5,14.3,97,0.00,,,0.52,39.00,VWS V14.01,2013-05-27 13:19:00,
2013-05-27 08:20:00,57.7,56.9,30.05,ENE,75,8.8,14.3,97,0.00,,,0.52,47.00,VWS V14.01,2013-05-27 13:20:00,
2013-05-27 08:21:00,57.7,56.9,30.04,East,79,5.5,8.8,97,0.00,,,0.52,53.00,VWS V14.01,2013-05-27 13:21:00,
2013-05-27 08:24:00,57.6,56.8,30.04,SE,130,2.2,13.2,97,0.00,,,0.52,70.00,VWS V14.01,2013-05-27 13:24:00,
2013-05-27 08:26:00,57.7,56.9,30.04,SE,132,7.7,13.2,97,0.00,,,0.52,77.00,VWS V14.01,2013-05-27 13:26:00,
2013-05-27 08:29:00,57.7,56.9,30.04,East,83,12.1,13.2,97,0.00,,,0.52,65.00,VWS V14.01,2013-05-27 13:29:00,
2013-05-27 08:30:00,57.8,57.0,30.04,ESE,118,4.4,13.2,97,0.00,,,0.52,65.00,VWS V14.01,2013-05-27 13:30:00,
2013-05-27 08:32:00,57.8,57.0,30.04,East,85,3.3,9.9,97,0.00,,,0.52,47.00,VWS V14.01,2013-05-27 13:32:00,
2013-05-27 08:34:00,57.7,56.9,30.04,East,97,3.3,9.9,97,0.00,,,0.52,70.00,VWS V14.01,2013-05-27 13:34:00,
2013-05-27 08:35:00,57.7,56.9,30.04,SE,135,3.3,9.9,97,0.00,,,0.52,69.00,VWS V14.01,2013-05-27 13:35:00,
2013-05-27 08:37:00,57.7,56.6,30.03,SE,138,8.8,14.3,96,0.00,,,0.52,76.00,VWS V14.01,2013-05-27 13:37:00,
2013-05-27 08:38:00,57.8,56.7,30.04,SE,133,14.3,14.3,96,0.00,,,0.52,76.00,VWS V14.01,2013-05-27 13:38:00,
2013-05-27 08:40:00,57.7,56.6,30.03,ESE,119,7.7,14.3,96,0.00,,,0.52,98.00,VWS V14.01,2013-05-27 13:40:00,
2013-05-27 08:42:00,57.8,57.0,30.03,ENE,68,4.4,8.8,97,0.00,,,0.52,142.00,VWS V14.01,2013-05-27 13:42:00,
2013-05-27 08:43:00,57.8,57.0,30.03,East,101,7.7,14.3,97,0.00,,,0.52,141.00,VWS V14.01,2013-05-27 13:43:00,
2013-05-27 08:45:00,57.9,57.1,30.03,ESE,116,2.2,14.3,97,0.00,,,0.52,141.00,VWS V14.01,2013-05-27 13:45:00,
2013-05-27 08:47:00,57.9,57.1,30.02,ESE,110,5.5,14.3,97,0.00,,,0.52,155.00,VWS V14.01,2013-05-27 13:47:00,
2013-05-27 08:48:00,58.0,57.2,30.02,ESE,112,9.9,19.8,97,0.00,,,0.52,156.00,VWS V14.01,2013-05-27 13:48:00,
2013-05-27 08:49:00,58.0,57.2,30.02,East,89,6.6,19.8,97,0.00,,,0.52,144.00,VWS V14.01,2013-05-27 13:49:00,
2013-05-27 08:52:00,58.1,57.0,30.02,ENE,73,2.2,12.1,96,0.00,,,0.52,192.00,VWS V14.01,2013-05-27 13:52:00,
2013-05-27 08:54:00,58.2,57.1,30.02,ESE,108,7.7,12.1,96,0.00,,,0.52,204.00,VWS V14.01,2013-05-27 13:54:00,
2013-05-27 08:55:00,58.2,57.1,30.02,ESE,120,5.5,12.1,96,0.00,,,0.52,216.00,VWS V14.01,2013-05-27 13:55:00,
2013-05-27 08:57:00,58.4,57.3,30.02,ESE,102,4.4,12.1,96,0.00,,,0.52,244.00,VWS V14.01,2013-05-27 13:57:00,
2013-05-27 08:58:00,58.4,57.3,30.02,ESE,108,7.7,12.1,96,0.00,,,0.52,232.00,VWS V14.01,2013-05-27 13:58:00,
2013-05-27 09:00:00,58.4,57.3,30.02,SE,129,6.6,16.5,96,0.00,,,0.52,225.00,VWS V14.01,2013-05-27 14:00:00,
2013-05-27 09:02:00,58.5,57.4,30.02,SE,145,8.8,22.0,96,0.00,,,0.52,244.00,VWS V14.01,2013-05-27 14:02:00,
2013-05-27 09:04:00,58.7,57.6,30.02,SE,129,6.6,22.0,96,0.00,,,0.52,236.00,VWS V14.01,2013-05-27 14:04:00,
2013-05-27 09:05:00,58.7,57.6,30.02,East,100,7.7,22.0,96,0.00,,,0.52,236.00,VWS V14.01,2013-05-27 14:05:00,
2013-05-27 09:09:00,58.7,57.6,30.02,SE,142,3.3,22.0,96,0.00,,,0.52,199.00,VWS V14.01,2013-05-27 14:09:00,
2013-05-27 09:11:00,58.8,57.7,30.02,East,81,2.2,5.5,96,0.00,,,0.52,192.00,VWS V14.01,2013-05-27 14:11:00,
2013-05-27 09:14:00,58.7,57.3,30.02,SE,124,7.7,13.2,95,0.00,,,0.52,213.00,VWS V14.01,2013-05-27 14:14:00,
2013-05-27 09:15:00,58.7,57.3,30.02,ESE,113,3.3,16.5,95,0.00,,,0.52,174.00,VWS V14.01,2013-05-27 14:15:00,
2013-05-27 09:16:00,58.7,57.3,30.03,SE,136,12.1,16.5,95,0.00,,,0.52,162.00,VWS V14.01,2013-05-27 14:16:00,
2013-05-27 09:17:00,58.7,57.3,30.03,ESE,112,11.0,16.5,95,0.00,,,0.52,162.00,VWS V14.01,2013-05-27 14:17:00,
2013-05-27 09:20:00,58.6,57.2,30.03,SSE,167,6.6,16.5,95,0.00,,,0.52,135.00,VWS V14.01,2013-05-27 14:20:00,
2013-05-27 09:21:00,58.6,57.2,30.03,SE,131,4.4,7.7,95,0.00,,,0.52,125.00,VWS V14.01,2013-05-27 14:21:00,
2013-05-27 09:22:00,58.6,57.2,30.04,SE,125,12.1,14.3,95,0.00,,,0.52,118.00,VWS V14.01,2013-05-27 14:22:00,
2013-05-27 09:23:00,58.6,57.2,30.04,East,89,9.9,14.3,95,0.00,,,0.52,118.00,VWS V14.01,2013-05-27 14:23:00,
2013-05-27 09:25:00,58.6,57.2,30.04,SSE,149,2.2,15.4,95,0.00,,,0.52,77.00,VWS V14.01,2013-05-27 14:25:00,
2013-05-27 09:26:00,58.5,57.1,30.04,SE,143,5.5,15.4,95,0.00,,,0.52,77.00,VWS V14.01,2013-05-27 14:26:00,
2013-05-27 09:27:00,58.5,56.8,30.04,SSE,151,4.4,15.4,94,0.00,,,0.52,63.00,VWS V14.01,2013-05-27 14:27:00,
2013-05-27 09:28:00,58.4,56.7,30.04,ESE,102,13.2,15.4,94,0.00,,,0.52,60.00,VWS V14.01,2013-05-27 14:28:00,
2013-05-27 09:30:00,58.4,56.7,30.04,ESE,103,8.8,8.8,94,0.00,,,0.52,69.00,VWS V14.01,2013-05-27 14:30:00,
2013-05-27 09:32:00,58.4,56.7,30.05,SSW,201,1.1,8.8,94,0.00,,,0.52,74.00,VWS V14.01,2013-05-27 14:32:00,
2013-05-27 09:33:00,58.4,57.0,30.05,ESE,112,5.5,13.2,95,0.00,,,0.52,79.00,VWS V14.01,2013-05-27 14:33:00,
2013-05-27 09:35:00,58.4,57.0,30.05,East,100,6.6,13.2,95,0.00,,,0.52,102.00,VWS V14.01,2013-05-27 14:35:00,
2013-05-27 09:36:00,58.4,57.0,30.04,East,100,6.6,13.2,95,0.00,,,0.52,98.00,VWS V14.01,2013-05-27 14:36:00,
2013-05-27 09:37:00,58.4,57.0,30.04,ENE,78,6.6,13.2,95,0.00,,,0.52,105.00,VWS V14.01,2013-05-27 14:37:00,
2013-05-27 09:38:00,58.3,56.6,30.04,SE,142,5.5,13.2,94,0.00,,,0.52,123.00,VWS V14.01,2013-05-27 14:38:00,
2013-05-27 09:39:00,58.4,57.0,30.04,SE,129,7.7,13.2,95,0.00,,,0.52,123.00,VWS V14.01,2013-05-27 14:39:00,
2013-05-27 09:40:00,58.4,57.0,30.04,ESE,110,2.2,13.2,95,0.00,,,0.52,128.00,VWS V14.01,2013-05-27 14:40:00,
2013-05-27 09:41:00,58.4,56.7,30.04,SE,127,3.3,6.6,94,0.00,,,0.52,116.00,VWS V14.01,2013-05-27 14:41:00,
2013-05-27 09:43:00,58.4,57.0,30.04,ESE,106,2.2,6.6,95,0.00,,,0.52,95.00,VWS V14.01,2013-05-27 14:43:00,
2013-05-27 09:44:00,58.4,57.0,30.04,East,92,7.7,7.7,95,0.00,,,0.52,95.00,VWS V14.01,2013-05-27 14:44:00,
2013-05-27 09:45:00,58.4,57.0,30.04,SE,139,5.5,12.1,95,0.00,,,0.52,111.00,VWS V14.01,2013-05-27 14:45:00,
2013-05-27 09:46:00,58.4,57.0,30.04,ESE,106,7.7,12.1,95,0.00,,,0.52,100.00,VWS V14.01,2013-05-27 14:46:00,
2013-05-27 09:49:00,58.4,57.0,30.04,ESE,108,4.4,12.1,95,0.00,,,0.52,113.00,VWS V14.01,2013-05-27 14:49:00,
2013-05-27 09:50:00,58.4,57.0,30.04,SE,126,7.7,12.1,95,0.00,,,0.52,113.00,VWS V14.01,2013-05-27 14:50:00,
2013-05-27 09:51:00,58.5,57.1,30.04,ESE,122,1.1,3.3,95,0.00,,,0.52,111.00,VWS V14.01,2013-05-27 14:51:00,
2013-05-27 09:53:00,58.5,57.1,30.04,SE,139,11.0,12.1,95,0.00,,,0.52,95.00,VWS V14.01,2013-05-27 14:53:00,
2013-05-27 09:54:00,58.5,57.1,30.04,East,89,1.1,12.1,95,0.00,,,0.52,88.00,VWS V14.01,2013-05-27 14:54:00,
2013-05-27 09:55:00,58.5,57.1,30.04,East,100,5.5,12.1,95,0.00,,,0.52,81.00,VWS V14.01,2013-05-27 14:55:00,
2013-05-27 09:56:00,58.4,57.0,30.04,East,92,2.2,12.1,95,0.00,,,0.52,98.00,VWS V14.01,2013-05-27 14:56:00,
2013-05-27 09:57:00,58.4,57.0,30.04,East,92,2.2,12.1,95,0.00,,,0.52,98.00,VWS V14.01,2013-05-27 14:57:00,
2013-05-27 09:59:00,58.4,57.0,30.03,ESE,120,12.1,12.1,95,0.00,,,0.52,98.00,VWS V14.01,2013-05-27 14:59:00,
2013-05-27 10:00:00,58.4,57.0,30.03,SE,125,8.8,12.1,95,0.00,,,0.52,104.00,VWS V14.01,2013-05-27 15:00:00,
2013-05-27 10:02:00,58.5,57.1,30.03,SE,127,4.4,8.8,95,0.00,,,0.52,125.00,VWS V14.01,2013-05-27 15:02:00,
2013-05-27 10:04:00,58.5,57.1,30.03,SE,127,6.6,13.2,95,0.00,,,0.52,65.00,VWS V14.01,2013-05-27 15:04:00,
2013-05-27 10:05:00,58.4,57.0,30.03,SE,144,4.4,13.2,95,0.00,,,0.52,69.00,VWS V14.01,2013-05-27 15:05:00,
2013-05-27 10:08:00,58.3,56.9,30.03,East,91,5.5,15.4,95,0.01,,,0.53,81.00,VWS V14.01,2013-05-27 15:08:00,
2013-05-27 10:09:00,58.4,57.0,30.03,ESE,118,1.1,15.4,95,0.01,,,0.53,93.00,VWS V14.01,2013-05-27 15:09:00,
2013-05-27 10:10:00,58.3,56.9,30.03,SE,135,14.3,15.4,95,0.01,,,0.53,93.00,VWS V14.01,2013-05-27 15:10:00,
2013-05-27 10:12:00,58.3,56.9,30.02,ESE,118,3.3,15.4,95,0.02,,,0.54,120.00,VWS V14.01,2013-05-27 15:12:00,
2013-05-27 10:14:00,58.2,56.8,30.02,ESE,104,5.5,15.4,95,0.03,,,0.55,125.00,VWS V14.01,2013-05-27 15:14:00,
2013-05-27 10:15:00,58.2,56.8,30.02,ESE,121,2.2,15.4,95,0.04,,,0.56,128.00,VWS V14.01,2013-05-27 15:15:00,
2013-05-27 10:16:00,58.2,56.8,30.02,SE,130,7.7,15.4,95,0.04,,,0.56,127.00,VWS V14.01,2013-05-27 15:16:00,
2013-05-27 10:17:00,58.2,56.8,30.02,SE,135,8.8,15.4,95,0.04,,,0.56,116.00,VWS V14.01,2013-05-27 15:17:00,
2013-05-27 10:20:00,58.1,56.7,30.02,ESE,115,13.2,15.4,95,0.05,,,0.57,113.00,VWS V14.01,2013-05-27 15:20:00,
2013-05-27 10:21:00,58.1,56.7,30.02,SE,143,9.9,12.1,95,0.05,,,0.57,113.00,VWS V14.01,2013-05-27 15:21:00,
2013-05-27 10:22:00,58.1,56.7,30.01,ESE,110,5.5,12.1,95,0.06,,,0.58,125.00,VWS V14.01,2013-05-27 15:22:00,
2013-05-27 10:23:00,58.1,56.7,30.01,SE,139,3.3,12.1,95,0.06,,,0.58,142.00,VWS V14.01,2013-05-27 15:23:00,
2013-05-27 10:26:00,58.1,56.7,30.01,East,85,2.2,12.1,95,0.06,,,0.58,186.00,VWS V14.01,2013-05-27 15:26:00,
2013-05-27 10:27:00,58.1,57.0,30.01,SE,129,4.4,12.1,96,0.06,,,0.58,120.00,VWS V14.01,2013-05-27 15:27:00,
2013-05-27 10:28:00,58.1,57.0,30.01,ENE,72,3.3,12.1,96,0.06,,,0.58,139.00,VWS V14.01,2013-05-27 15:28:00,
2013-05-27 10:30:00,58.2,57.1,30.01,SE,144,5.5,12.1,96,0.07,,,0.59,153.00,VWS V14.01,2013-05-27 15:30:00,
2013-05-27 10:31:00,58.2,57.1,30.01,ENE,73,12.1,12.1,96,0.07,,,0.59,134.00,VWS V14.01,2013-05-27 15:31:00,
2013-05-27 10:32:00,58.3,57.2,30.01,SE,142,9.9,12.1,96,0.07,,,0.59,130.00,VWS V14.01,2013-05-27 15:32:00,
2013-05-27 10:33:00,58.3,57.2,30.00,SSE,150,5.5,12.1,96,0.07,,,0.59,153.00,VWS V14.01,2013-05-27 15:33:00,
2013-05-27 10:34:00,58.2,57.1,30.00,ESE,113,13.2,13.2,96,0.07,,,0.59,153.00,VWS V14.01,2013-05-27 15:34:00,
2013-05-27 10:36:00,58.2,57.1,30.00,SE,135,5.5,13.2,96,0.07,,,0.59,253.00,VWS V14.01,2013-05-27 15:36:00,
2013-05-27 10:37:00,58.2,57.1,30.00,ESE,104,5.5,13.2,96,0.07,,,0.59,295.00,VWS V14.01,2013-05-27 15:37:00,
2013-05-27 10:38:00,58.3,57.2,30.00,East,100,7.7,13.2,96,0.07,,,0.59,325.00,VWS V14.01,2013-05-27 15:38:00,
2013-05-27 10:39:00,58.4,57.3,30.00,East,93,6.6,13.2,96,0.07,,,0.59,355.00,VWS V14.01,2013-05-27 15:39:00,
2013-05-27 10:41:00,58.8,57.7,30.00,SE,136,8.8,14.3,96,0.07,,,0.59,483.00,VWS V14.01,2013-05-27 15:41:00,
2013-05-27 10:43:00,59.0,57.9,30.00,ENE,70,4.4,14.3,96,0.07,,,0.59,483.00,VWS V14.01,2013-05-27 15:43:00,
2013-05-27 10:44:00,59.2,58.3,30.00,SE,130,0.0,14.3,97,0.07,,,0.59,374.00,VWS V14.01,2013-05-27 15:44:00,
2013-05-27 10:46:00,59.4,58.3,29.99,SSW,205,6.6,14.3,96,0.07,,,0.59,408.00,VWS V14.01,2013-05-27 15:46:00,
2013-05-27 10:49:00,59.5,58.4,29.99,SE,139,5.5,14.3,96,0.07,,,0.59,383.00,VWS V14.01,2013-05-27 15:49:00,
2013-05-27 10:50:00,59.5,58.4,29.99,SE,139,4.4,14.3,96,0.07,,,0.59,383.00,VWS V14.01,2013-05-27 15:50:00,
2013-05-27 10:52:00,60.1,59.2,29.99,SSE,148,2.2,9.9,97,0.07,,,0.59,450.00,VWS V14.01,2013-05-27 15:52:00,
2013-05-27 10:55:00,60.4,59.5,29.99,SE,146,9.9,18.7,97,0.07,,,0.59,387.00,VWS V14.01,2013-05-27 15:55:00,
2013-05-27 10:58:00,60.4,59.3,29.99,East,88,8.8,20.9,96,0.07,,,0.59,411.00,VWS V14.01,2013-05-27 15:58:00,
2013-05-27 11:00:00,60.4,59.3,29.99,SE,137,12.1,20.9,96,0.07,,,0.59,411.00,VWS V14.01,2013-05-27 16:00:00,
2013-05-27 11:01:00,60.4,59.3,29.99,East,92,12.1,12.1,96,0.07,,,0.59,411.00,VWS V14.01,2013-05-27 16:01:00,
2013-05-27 11:04:00,60.7,59.6,29.99,East,93,6.6,13.2,96,0.07,,,0.59,471.00,VWS V14.01,2013-05-27 16:04:00,
2013-05-27 11:05:00,60.9,59.8,29.99,SE,141,5.5,15.4,96,0.07,,,0.59,568.00,VWS V14.01,2013-05-27 16:05:00,
2013-05-27 11:06:00,60.9,59.8,29.99,SE,133,3.3,15.4,96,0.07,,,0.59,524.00,VWS V14.01,2013-05-27 16:06:00,
2013-05-27 11:07:00,61.0,59.9,29.99,ESE,120,8.8,15.4,96,0.07,,,0.59,524.00,VWS V14.01,2013-05-27 16:07:00,
2013-05-27 11:09:00,61.0,59.6,29.99,SE,127,4.4,16.5,95,0.07,,,0.59,473.00,VWS V14.01,2013-05-27 16:09:00,
2013-05-27 11:10:00,61.0,59.6,29.99,SE,133,9.9,16.5,95,0.07,,,0.59,566.00,VWS V14.01,2013-05-27 16:10:00,
2013-05-27 11:11:00,61.0,59.6,29.99,ESE,121,14.3,14.3,95,0.05,,,0.59,566.00,VWS V14.01,2013-05-27 16:11:00,
2013-05-27 11:13:00,61.4,60.0,29.99,South,175,7.7,14.3,95,0.05,,,0.59,566.00,VWS V14.01,2013-05-27 16:13:00,
2013-05-27 11:15:00,61.9,60.8,29.99,SSE,163,4.4,17.6,96,0.05,,,0.59,566.00,VWS V14.01,2013-05-27 16:15:00,
2013-05-27 11:16:00,62.0,60.8,29.99,SSE,159,11.0,17.6,96,0.05,,,0.59,550.00,VWS V14.01,2013-05-27 16:16:00,
2013-05-27 11:18:00,62.0,60.3,29.99,South,171,4.4,17.6,94,0.05,,,0.59,550.00,VWS V14.01,2013-05-27 16:18:00,
2013-05-27 11:21:00,61.9,60.2,29.99,ESE,109,5.5,8.8,94,0.02,,,0.59,550.00,VWS V14.01,2013-05-27 16:21:00,
2013-05-27 11:23:00,62.1,60.4,29.99,SE,129,4.4,16.5,94,0.02,,,0.59,515.00,VWS V14.01,2013-05-27 16:23:00,
2013-05-27 11:24:00,62.2,60.5,29.99,ESE,112,4.4,16.5,94,0.02,,,0.59,515.00,VWS V14.01,2013-05-27 16:24:00,
2013-05-27 11:26:00,62.2,60.2,29.99,East,95,14.3,17.6,93,0.02,,,0.59,515.00,VWS V14.01,2013-05-27 16:26:00,
2013-05-27 11:27:00,62.2,60.2,29.98,SE,127,4.4,17.6,93,0.02,,,0.59,515.00,VWS V14.01,2013-05-27 16:27:00,
2013-05-27 11:28:00,62.3,60.2,29.98,East,100,7.7,17.6,93,0.02,,,0.59,489.00,VWS V14.01,2013-05-27 16:28:00,
2013-05-27 11:30:00,62.5,60.5,29.98,ESE,108,4.4,17.6,93,0.02,,,0.59,489.00,VWS V14.01,2013-05-27 16:30:00,
2013-05-27 11:31:00,62.5,60.5,29.98,ESE,121,16.5,16.5,93,0.00,,,0.59,489.00,VWS V14.01,2013-05-27 16:31:00,
2013-05-27 11:32:00,62.6,60.5,29.98,East,89,12.1,16.5,93,0.00,,,0.59,489.00,VWS V14.01,2013-05-27 16:32:00,
2013-05-27 11:33:00,62.7,60.7,29.98,SSE,152,11.0,17.6,93,0.01,,,0.60,489.00,VWS V14.01,2013-05-27 16:33:00,
2013-05-27 11:35:00,62.9,60.8,29.98,East,90,7.7,17.6,93,0.01,,,0.60,926.00,VWS V14.01,2013-05-27 16:35:00,
2013-05-27 11:36:00,63.1,61.0,29.98,ESE,121,11.0,17.6,93,0.01,,,0.60,926.00,VWS V14.01,2013-05-27 16:36:00,
2013-05-27 11:37:00,63.1,61.0,29.98,ESE,107,7.7,17.6,93,0.01,,,0.60,926.00,VWS V14.01,2013-05-27 16:37:00,
2013-05-27 11:38:00,63.2,60.8,29.98,South,181,7.7,17.6,92,0.01,,,0.60,926.00,VWS V14.01,2013-05-27 16:38:00,
2013-05-27 11:39:00,63.4,61.3,29.98,East,97,3.3,17.6,93,0.01,,,0.60,605.00,VWS V14.01,2013-05-27 16:39:00,
2013-05-27 11:42:00,63.4,61.0,29.98,SE,131,6.6,13.2,92,0.01,,,0.60,621.00,VWS V14.01,2013-05-27 16:42:00,
2013-05-27 11:43:00,63.5,61.1,29.98,ESE,106,5.5,13.2,92,0.01,,,0.60,499.00,VWS V14.01,2013-05-27 16:43:00,
2013-05-27 11:45:00,63.5,61.1,29.98,ESE,120,3.3,14.3,92,0.01,,,0.60,445.00,VWS V14.01,2013-05-27 16:45:00,
2013-05-27 11:47:00,63.8,61.7,29.98,SE,139,11.0,14.3,93,0.01,,,0.60,473.00,VWS V14.01,2013-05-27 16:47:00,
2013-05-27 11:48:00,63.9,61.8,29.98,SSE,158,3.3,16.5,93,0.01,,,0.60,471.00,VWS V14.01,2013-05-27 16:48:00,
2013-05-27 11:50:00,63.9,61.5,29.98,ESE,102,8.8,16.5,92,0.01,,,0.60,341.00,VWS V14.01,2013-05-27 16:50:00,
2013-05-27 11:53:00,63.7,61.0,29.98,East,89,5.5,11.0,91,0.01,,,0.60,320.00,VWS V14.01,2013-05-27 16:53:00,
2013-05-27 11:54:00,63.5,60.8,29.98,ESE,116,15.4,15.4,91,0.01,,,0.60,406.00,VWS V14.01,2013-05-27 16:54:00,
2013-05-27 11:55:00,63.5,60.8,29.98,ESE,113,12.1,15.4,91,0.01,,,0.60,406.00,VWS V14.01,2013-05-27 16:55:00,
2013-05-27 11:56:00,63.4,60.7,29.98,ENE,71,5.5,15.4,91,0.01,,,0.60,404.00,VWS V14.01,2013-05-27 16:56:00,
2013-05-27 11:59:00,63.2,60.5,29.98,SSE,161,9.9,16.5,91,0.01,,,0.60,445.00,VWS V14.01,2013-05-27 16:59:00,
2013-05-27 12:00:00,63.4,61.0,29.98,SE,145,9.9,16.5,92,0.01,,,0.60,517.00,VWS V14.01,2013-05-27 17:00:00,
2013-05-27 12:02:00,63.7,61.0,29.98,East,100,7.7,12.1,91,0.01,,,0.60,578.00,VWS V14.01,2013-05-27 17:02:00,
2013-05-27 12:04:00,63.9,60.9,29.97,ESE,108,8.8,14.3,90,0.01,,,0.60,578.00,VWS V14.01,2013-05-27 17:04:00,
2013-05-27 12:06:00,64.0,61.0,29.97,SSE,166,1.1,14.3,90,0.01,,,0.60,466.00,VWS V14.01,2013-05-27 17:06:00,
2013-05-27 12:07:00,64.1,61.1,29.97,ESE,115,1.1,14.3,90,0.01,,,0.60,466.00,VWS V14.01,2013-05-27 17:07:00,
2013-05-27 12:10:00,64.3,61.3,29.97,ESE,118,5.5,14.3,90,0.01,,,0.60,318.00,VWS V14.01,2013-05-27 17:10:00,
2013-05-27 12:12:00,64.1,60.8,29.98,ESE,122,7.7,11.0,89,0.01,,,0.60,315.00,VWS V14.01,2013-05-27 17:12:00,
2013-05-27 12:14:00,64.3,61.6,29.98,ESE,120,8.8,11.0,91,0.01,,,0.60,585.00,VWS V14.01,2013-05-27 17:14:00,
2013-05-27 12:16:00,64.6,61.9,29.97,SE,146,3.3,11.0,91,0.01,,,0.60,371.00,VWS V14.01,2013-05-27 17:16:00,
2013-05-27 12:17:00,64.6,61.3,29.98,East,99,8.8,13.2,89,0.01,,,0.60,281.00,VWS V14.01,2013-05-27 17:17:00,
2013-05-27 12:18:00,64.5,60.9,29.97,ESE,104,7.7,13.2,88,0.01,,,0.60,221.00,VWS V14.01,2013-05-27 17:18:00,
2013-05-27 12:19:00,64.3,61.0,29.98,SE,127,2.2,13.2,89,0.01,,,0.60,190.00,VWS V14.01,2013-05-27 17:19:00,
2013-05-27 12:20:00,64.1,60.5,29.98,ESE,118,1.1,3.3,88,0.01,,,0.60,155.00,VWS V14.01,2013-05-27 17:20:00,
2013-05-27 12:22:00,64.0,60.4,29.97,SE,131,4.4,8.8,88,0.01,,,0.60,146.00,VWS V14.01,2013-05-27 17:22:00,
2013-05-27 12:23:00,63.9,60.6,29.97,SSW,206,4.4,8.8,89,0.01,,,0.60,146.00,VWS V14.01,2013-05-27 17:23:00,
2013-05-27 12:25:00,63.7,60.4,29.98,SSE,162,6.6,11.0,89,0.01,,,0.60,155.00,VWS V14.01,2013-05-27 17:25:00,
2013-05-27 12:26:00,63.6,60.3,29.98,SSW,206,5.5,12.1,89,0.01,,,0.60,135.00,VWS V14.01,2013-05-27 17:26:00,
2013-05-27 12:27:00,63.6,60.3,29.97,South,183,6.6,13.2,89,0.01,,,0.60,165.00,VWS V14.01,2013-05-27 17:27:00,
2013-05-27 12:28:00,63.6,60.6,29.98,SE,138,7.7,14.3,90,0.01,,,0.60,178.00,VWS V14.01,2013-05-27 17:28:00,
2013-05-27 12:30:00,63.6,60.3,29.98,SSE,148,8.8,14.3,89,0.01,,,0.60,158.00,VWS V14.01,2013-05-27 17:30:00,
2013-05-27 12:31:00,63.5,60.2,29.97,South,185,4.4,11.0,89,0.01,,,0.60,146.00,VWS V14.01,2013-05-27 17:31:00,
2013-05-27 12:33:00,63.5,60.2,29.98,South,176,6.6,11.0,89,0.01,,,0.60,114.00,VWS V14.01,2013-05-27 17:33:00,
2013-05-27 12:34:00,63.5,60.2,29.98,SE,127,8.8,11.0,89,0.01,,,0.60,107.00,VWS V14.01,2013-05-27 17:34:00,
2013-05-27 12:36:00,63.3,60.0,29.98,East,93,9.9,14.3,89,0.01,,,0.60,111.00,VWS V14.01,2013-05-27 17:36:00,
2013-05-27 12:37:00,63.3,60.0,29.98,SE,146,7.7,14.3,89,0.01,,,0.60,102.00,VWS V14.01,2013-05-27 17:37:00,
2013-05-27 12:38:00,63.2,59.9,29.98,SSE,152,5.5,14.3,89,0.01,,,0.60,95.00,VWS V14.01,2013-05-27 17:38:00,
2013-05-27 12:39:00,63.2,60.2,29.98,SSW,195,6.6,14.3,90,0.01,,,0.60,90.00,VWS V14.01,2013-05-27 17:39:00,
2013-05-27 12:41:00,63.1,60.1,29.98,SE,128,3.3,11.0,90,0.00,,,0.60,98.00,VWS V14.01,2013-05-27 17:41:00,
2013-05-27 12:42:00,63.0,60.0,29.98,SSE,152,1.1,11.0,90,0.00,,,0.60,97.00,VWS V14.01,2013-05-27 17:42:00,
2013-05-27 12:44:00,62.9,59.6,29.98,SE,141,5.5,11.0,89,0.00,,,0.60,91.00,VWS V14.01,2013-05-27 17:44:00,
2013-05-27 12:45:00,62.8,59.5,29.98,SE,145,7.7,11.0,89,0.00,,,0.60,90.00,VWS V14.01,2013-05-27 17:45:00,
2013-05-27 12:47:00,62.8,59.5,29.98,SSE,160,2.2,15.4,89,0.00,,,0.60,88.00,VWS V14.01,2013-05-27 17:47:00,
2013-05-27 12:49:00,62.8,59.8,29.98,SE,125,3.3,15.4,90,0.00,,,0.60,88.00,VWS V14.01,2013-05-27 17:49:00,
2013-05-27 12:50:00,62.8,59.8,29.98,ENE,65,8.8,15.4,90,0.00,,,0.60,83.00,VWS V14.01,2013-05-27 17:50:00,
2013-05-27 12:52:00,62.7,59.7,29.98,SE,140,4.4,11.0,90,0.00,,,0.60,79.00,VWS V14.01,2013-05-27 17:52:00,
2013-05-27 12:53:00,62.7,59.7,29.98,ENE,62,1.1,11.0,90,0.00,,,0.60,76.00,VWS V14.01,2013-05-27 17:53:00,
2013-05-27 12:54:00,62.7,59.7,29.98,SE,129,2.2,11.0,90,0.00,,,0.60,72.00,VWS V14.01,2013-05-27 17:54:00,
2013-05-27 12:55:00,62.6,59.6,29.98,SE,133,6.6,11.0,90,0.00,,,0.60,69.00,VWS V14.01,2013-05-27 17:55:00,
2013-05-27 12:57:00,62.5,59.5,29.98,SSE,152,1.1,11.0,90,0.00,,,0.60,56.00,VWS V14.01,2013-05-27 17:57:00,
2013-05-27 12:58:00,62.5,59.5,29.98,SSE,152,0.0,11.0,90,0.00,,,0.60,54.00,VWS V14.01,2013-05-27 17:58:00,
2013-05-27 12:59:00,62.5,59.5,29.98,SE,129,4.4,11.0,90,0.00,,,0.60,56.00,VWS V14.01,2013-05-27 17:59:00,
2013-05-27 13:00:00,62.4,59.4,29.98,SE,137,1.1,12.1,90,0.00,,,0.60,58.00,VWS V14.01,2013-05-27 18:00:00,
2013-05-27 13:03:00,62.2,59.2,29.99,SE,143,1.1,8.8,90,0.00,,,0.60,62.00,VWS V14.01,2013-05-27 18:03:00,
2013-05-27 13:05:00,62.1,59.5,29.98,ESE,110,7.7,8.8,91,0.00,,,0.60,76.00,VWS V14.01,2013-05-27 18:05:00,
2013-05-27 13:06:00,62.0,59.3,29.99,SE,133,4.4,8.8,91,0.00,,,0.60,79.00,VWS V14.01,2013-05-27 18:06:00,
2013-05-27 13:07:00,62.0,59.3,29.99,SSE,149,1.1,8.8,91,0.00,,,0.60,79.00,VWS V14.01,2013-05-27 18:07:00,
2013-05-27 13:08:00,61.9,59.2,29.99,SE,135,3.3,8.8,91,0.00,,,0.60,77.00,VWS V14.01,2013-05-27 18:08:00,
2013-05-27 13:11:00,61.9,59.5,29.99,ESE,108,1.1,5.5,92,0.00,,,0.60,77.00,VWS V14.01,2013-05-27 18:11:00,
2013-05-27 13:12:00,61.9,59.5,29.99,ESE,106,4.4,5.5,92,0.00,,,0.60,54.00,VWS V14.01,2013-05-27 18:12:00,
2013-05-27 13:13:00,61.9,59.9,29.99,ENE,75,1.1,5.5,93,0.00,,,0.60,54.00,VWS V14.01,2013-05-27 18:13:00,
2013-05-27 13:14:00,61.8,59.8,29.99,ESE,119,5.5,7.7,93,0.00,,,0.60,77.00,VWS V14.01,2013-05-27 18:14:00,
2013-05-27 13:16:00,61.7,59.7,29.99,ESE,104,2.2,8.8,93,0.00,,,0.60,83.00,VWS V14.01,2013-05-27 18:16:00,
2013-05-27 13:17:00,61.6,59.6,29.99,East,90,3.3,8.8,93,0.00,,,0.60,74.00,VWS V14.01,2013-05-27 18:17:00,
2013-05-27 13:18:00,61.6,59.6,29.99,ESE,111,0.0,8.8,93,0.00,,,0.60,74.00,VWS V14.01,2013-05-27 18:18:00,
2013-05-27 13:19:00,61.5,59.5,29.99,East,96,1.1,8.8,93,0.00,,,0.60,74.00,VWS V14.01,2013-05-27 18:19:00,
2013-05-27 13:20:00,61.5,59.5,29.99,East,94,1.1,8.8,93,0.00,,,0.60,76.00,VWS V14.01,2013-05-27 18:20:00,
2013-05-27 13:22:00,61.5,59.8,29.99,ESE,110,4.4,4.4,94,0.00,,,0.60,98.00,VWS V14.01,2013-05-27 18:22:00,
2013-05-27 13:24:00,61.5,59.8,29.99,East,101,3.3,5.5,94,0.00,,,0.60,109.00,VWS V14.01,2013-05-27 18:24:00,
2013-05-27 13:25:00,61.4,59.7,29.99,SE,124,3.3,6.6,94,0.00,,,0.60,84.00,VWS V14.01,2013-05-27 18:25:00,
2013-05-27 13:26:00,61.5,59.8,29.99,East,101,1.1,6.6,94,0.00,,,0.60,84.00,VWS V14.01,2013-05-27 18:26:00,
2013-05-27 13:27:00,61.3,59.6,29.99,East,93,3.3,8.8,94,0.00,,,0.60,83.00,VWS V14.01,2013-05-27 18:27:00,
2013-05-27 13:28:00,61.3,59.6,29.99,East,92,2.2,8.8,94,0.00,,,0.60,72.00,VWS V14.01,2013-05-27 18:28:00,
2013-05-27 13:29:00,61.3,59.6,29.99,East,99,2.2,8.8,94,0.00,,,0.60,65.00,VWS V14.01,2013-05-27 18:29:00,
2013-05-27 13:30:00,61.2,59.5,29.99,ESE,114,1.1,8.8,94,0.00,,,0.60,63.00,VWS V14.01,2013-05-27 18:30:00,
2013-05-27 13:33:00,61.1,59.4,29.99,ENE,77,1.1,3.3,94,0.01,,,0.61,67.00,VWS V14.01,2013-05-27 18:33:00,
2013-05-27 13:34:00,61.1,59.4,29.99,ESE,108,2.2,3.3,94,0.01,,,0.61,76.00,VWS V14.01,2013-05-27 18:34:00,
2013-05-27 13:36:00,61.0,59.6,29.99,SE,137,1.1,3.3,95,0.01,,,0.61,113.00,VWS V14.01,2013-05-27 18:36:00,
2013-05-27 13:39:00,61.1,59.7,29.99,ESE,122,0.0,3.3,95,0.01,,,0.61,109.00,VWS V14.01,2013-05-27 18:39:00,
2013-05-27 13:41:00,61.2,59.8,29.99,ESE,121,1.1,2.2,95,0.01,,,0.61,153.00,VWS V14.01,2013-05-27 18:41:00,
2013-05-27 13:45:00,61.5,60.3,29.99,ESE,115,1.1,9.9,96,0.02,,,0.62,230.00,VWS V14.01,2013-05-27 18:45:00,
2013-05-27 13:46:00,61.6,60.5,29.99,East,92,1.1,9.9,96,0.02,,,0.62,230.00,VWS V14.01,2013-05-27 18:46:00,
2013-05-27 13:47:00,61.6,60.5,29.99,East,94,3.3,9.9,96,0.02,,,0.62,309.00,VWS V14.01,2013-05-27 18:47:00,
2013-05-27 13:50:00,61.6,60.5,29.98,ESE,113,1.1,9.9,96,0.02,,,0.62,306.00,VWS V14.01,2013-05-27 18:50:00,
2013-05-27 13:51:00,61.7,60.5,29.98,East,83,5.5,5.5,96,0.02,,,0.62,306.00,VWS V14.01,2013-05-27 18:51:00,
2013-05-27 13:53:00,61.9,60.8,29.98,ESE,103,3.3,6.6,96,0.02,,,0.62,146.00,VWS V14.01,2013-05-27 18:53:00,
2013-05-27 13:55:00,61.9,60.8,29.98,East,92,1.1,7.7,96,0.02,,,0.62,183.00,VWS V14.01,2013-05-27 18:55:00,
2013-05-27 13:56:00,61.9,60.8,29.98,ESE,103,2.2,7.7,96,0.02,,,0.62,193.00,VWS V14.01,2013-05-27 18:56:00,
2013-05-27 13:58:00,61.8,60.7,29.98,ESE,104,0.0,7.7,96,0.02,,,0.62,172.00,VWS V14.01,2013-05-27 18:58:00,
2013-05-27 14:00:00,61.5,60.3,29.98,East,87,2.2,7.7,96,0.02,,,0.62,199.00,VWS V14.01,2013-05-27 19:00:00,
2013-05-27 14:01:00,61.4,60.2,29.98,East,91,1.1,9.9,96,0.02,,,0.62,158.00,VWS V14.01,2013-05-27 19:01:00,
2013-05-27 14:03:00,61.3,60.2,29.98,ENE,75,1.1,9.9,96,0.02,,,0.62,142.00,VWS V14.01,2013-05-27 19:03:00,
2013-05-27 14:04:00,61.4,60.2,29.98,ENE,69,2.2,9.9,96,0.02,,,0.62,167.00,VWS V14.01,2013-05-27 19:04:00,
2013-05-27 14:07:00,61.4,60.2,29.98,East,97,6.6,9.9,96,0.02,,,0.62,250.00,VWS V14.01,2013-05-27 19:07:00,
2013-05-27 14:08:00,61.6,60.5,29.98,ESE,106,4.4,9.9,96,0.02,,,0.62,237.00,VWS V14.01,2013-05-27 19:08:00,
2013-05-27 14:09:00,61.5,60.3,29.98,East,89,2.2,9.9,96,0.02,,,0.62,225.00,VWS V14.01,2013-05-27 19:09:00,
2013-05-27 14:10:00,61.7,60.5,29.98,East,83,1.1,9.9,96,0.02,,,0.62,265.00,VWS V14.01,2013-05-27 19:10:00,
2013-05-27 14:12:00,61.6,60.5,29.97,East,96,7.7,7.7,96,0.02,,,0.62,258.00,VWS V14.01,2013-05-27 19:12:00,
2013-05-27 14:13:00,61.5,60.3,29.97,ENE,66,5.5,7.7,96,0.02,,,0.62,236.00,VWS V14.01,2013-05-27 19:13:00,
2013-05-27 14:14:00,61.4,60.2,29.97,NE,38,0.0,9.9,96,0.02,,,0.62,250.00,VWS V14.01,2013-05-27 19:14:00,
2013-05-27 14:15:00,61.4,60.0,29.98,NE,53,1.1,9.9,95,0.02,,,0.62,239.00,VWS V14.01,2013-05-27 19:15:00,
2013-05-27 14:17:00,61.4,60.2,29.98,ESE,108,5.5,9.9,96,0.02,,,0.62,230.00,VWS V14.01,2013-05-27 19:17:00,
2013-05-27 14:19:00,61.6,60.5,29.97,ENE,77,3.3,9.9,96,0.02,,,0.62,214.00,VWS V14.01,2013-05-27 19:19:00,
2013-05-27 14:20:00,61.8,60.7,29.97,ESE,106,4.4,8.8,96,0.02,,,0.62,260.00,VWS V14.01,2013-05-27 19:20:00,
2013-05-27 14:22:00,61.8,60.7,29.97,SSE,150,3.3,8.8,96,0.02,,,0.62,278.00,VWS V14.01,2013-05-27 19:22:00,
2013-05-27 14:23:00,62.0,60.8,29.97,ENE,70,2.2,9.9,96,0.02,,,0.62,232.00,VWS V14.01,2013-05-27 19:23:00,
2013-05-27 14:24:00,62.2,61.0,29.97,East,89,8.8,9.9,96,0.02,,,0.62,223.00,VWS V14.01,2013-05-27 19:24:00,
2013-05-27 14:26:00,62.1,61.0,29.97,East,88,5.5,11.0,96,0.02,,,0.62,176.00,VWS V14.01,2013-05-27 19:26:00,
2013-05-27 14:29:00,61.8,60.4,29.97,NE,54,3.3,11.0,95,0.02,,,0.62,163.00,VWS V14.01,2013-05-27 19:29:00,
2013-05-27 14:30:00,61.7,60.3,29.97,ESE,121,4.4,11.0,95,0.02,,,0.62,163.00,VWS V14.01,2013-05-27 19:30:00,
2013-05-27 14:31:00,61.6,60.2,29.97,ESE,118,3.3,7.7,95,0.02,,,0.62,178.00,VWS V14.01,2013-05-27 19:31:00,
2013-05-27 14:34:00,61.7,60.5,29.97,East,93,2.2,7.7,96,0.02,,,0.62,225.00,VWS V14.01,2013-05-27 19:34:00,
2013-05-27 14:35:00,61.8,60.7,29.97,ESE,106,7.7,8.8,96,0.02,,,0.62,225.00,VWS V14.01,2013-05-27 19:35:00,
2013-05-27 14:36:00,61.8,60.7,29.96,NE,52,4.4,8.8,96,0.02,,,0.62,225.00,VWS V14.01,2013-05-27 19:36:00,
2013-05-27 14:38:00,61.8,60.7,29.96,ENE,77,2.2,8.8,96,0.02,,,0.62,316.00,VWS V14.01,2013-05-27 19:38:00,
2013-05-27 14:39:00,61.9,60.8,29.96,ENE,75,4.4,8.8,96,0.02,,,0.62,313.00,VWS V14.01,2013-05-27 19:39:00,
2013-05-27 14:40:00,62.0,60.8,29.96,ENE,73,8.8,8.8,96,0.02,,,0.62,264.00,VWS V14.01,2013-05-27 19:40:00,
2013-05-27 14:41:00,62.1,61.0,29.96,East,85,9.9,11.0,96,0.01,,,0.62,255.00,VWS V14.01,2013-05-27 19:41:00,
2013-05-27 14:42:00,62.2,61.0,29.96,NE,48,5.5,11.0,96,0.01,,,0.62,271.00,VWS V14.01,2013-05-27 19:42:00,
2013-05-27 14:43:00,62.2,61.0,29.96,East,96,7.7,12.1,96,0.01,,,0.62,281.00,VWS V14.01,2013-05-27 19:43:00,
2013-05-27 14:45:00,62.1,60.7,29.96,NE,56,3.3,12.1,95,0.01,,,0.62,316.00,VWS V14.01,2013-05-27 19:45:00,
2013-05-27 14:48:00,62.2,60.8,29.95,NE,37,4.4,12.1,95,0.01,,,0.62,269.00,VWS V14.01,2013-05-27 19:48:00,
2013-05-27 14:49:00,62.2,60.8,29.95,East,79,8.8,12.1,95,0.01,,,0.62,287.00,VWS V14.01,2013-05-27 19:49:00,
2013-05-27 14:50:00,62.4,61.0,29.95,NNE,25,3.3,12.1,95,0.01,,,0.62,287.00,VWS V14.01,2013-05-27 19:50:00,
2013-05-27 14:52:00,62.4,61.0,29.94,NE,52,0.0,8.8,95,0.00,,,0.62,292.00,VWS V14.01,2013-05-27 19:52:00,
2013-05-27 14:54:00,62.6,61.2,29.94,ENE,59,2.2,11.0,95,0.00,,,0.62,264.00,VWS V14.01,2013-05-27 19:54:00,
2013-05-27 14:55:00,62.6,61.2,29.94,ESE,117,7.7,11.0,95,0.00,,,0.62,264.00,VWS V14.01,2013-05-27 19:55:00,
2013-05-27 14:56:00,62.6,61.2,29.94,ESE,108,11.0,11.0,95,0.00,,,0.62,214.00,VWS V14.01,2013-05-27 19:56:00,
2013-05-27 14:58:00,62.6,61.2,29.94,ENE,62,3.3,11.0,95,0.00,,,0.62,174.00,VWS V14.01,2013-05-27 19:58:00,
2013-05-27 14:59:00,62.6,61.2,29.94,East,97,3.3,11.0,95,0.00,,,0.62,174.00,VWS V14.01,2013-05-27 19:59:00,
2013-05-27 15:00:00,62.6,61.2,29.94,ESE,121,3.3,11.0,95,0.00,,,0.62,174.00,VWS V14.01,2013-05-27 20:00:00,
2013-05-27 15:01:00,62.7,61.2,29.94,ESE,111,3.3,8.8,95,0.00,,,0.62,162.00,VWS V14.01,2013-05-27 20:01:00,
2013-05-27 15:03:00,62.6,61.2,29.94,ESE,122,3.3,8.8,95,0.00,,,0.62,137.00,VWS V14.01,2013-05-27 20:03:00,
2013-05-27 15:05:00,62.5,61.0,29.94,ESE,118,9.9,12.1,95,0.00,,,0.62,200.00,VWS V14.01,2013-05-27 20:05:00,
2013-05-27 15:06:00,62.5,60.8,29.94,ESE,116,5.5,12.1,94,0.00,,,0.62,241.00,VWS V14.01,2013-05-27 20:06:00,
2013-05-27 15:07:00,62.5,60.8,29.94,ESE,112,15.4,15.4,94,0.00,,,0.62,260.00,VWS V14.01,2013-05-27 20:07:00,
2013-05-27 15:09:00,62.5,61.0,29.94,East,91,3.3,15.4,95,0.00,,,0.62,239.00,VWS V14.01,2013-05-27 20:09:00,
2013-05-27 15:11:00,62.6,61.2,29.94,East,89,5.5,12.1,95,0.00,,,0.62,174.00,VWS V14.01,2013-05-27 20:11:00,
2013-05-27 15:12:00,62.6,61.2,29.94,SE,135,5.5,12.1,95,0.00,,,0.62,156.00,VWS V14.01,2013-05-27 20:12:00,
2013-05-27 15:14:00,62.6,60.8,29.94,ESE,114,5.5,12.1,94,0.00,,,0.62,128.00,VWS V14.01,2013-05-27 20:14:00,
2013-05-27 15:17:00,62.6,60.8,29.94,ENE,72,4.4,12.1,94,0.00,,,0.62,120.00,VWS V14.01,2013-05-27 20:17:00,
2013-05-27 15:18:00,62.5,60.8,29.94,SSE,151,3.3,12.1,94,0.00,,,0.62,162.00,VWS V14.01,2013-05-27 20:18:00,
2013-05-27 15:19:00,62.4,60.7,29.93,ENE,59,5.5,12.1,94,0.00,,,0.62,174.00,VWS V14.01,2013-05-27 20:19:00,
2013-05-27 15:20:00,62.4,60.7,29.93,East,100,3.3,3.3,94,0.00,,,0.62,172.00,VWS V14.01,2013-05-27 20:20:00,
2013-05-27 15:22:00,62.4,60.7,29.93,SE,125,5.5,14.3,94,0.00,,,0.62,211.00,VWS V14.01,2013-05-27 20:22:00,
2013-05-27 15:23:00,62.5,61.0,29.92,ESE,104,3.3,14.3,95,0.00,,,0.62,251.00,VWS V14.01,2013-05-27 20:23:00,
2013-05-27 15:24:00,62.6,61.2,29.92,ENE,77,2.2,14.3,95,0.00,,,0.62,272.00,VWS V14.01,2013-05-27 20:24:00,
2013-05-27 15:26:00,62.6,61.2,29.92,ENE,77,9.9,14.3,95,0.00,,,0.62,237.00,VWS V14.01,2013-05-27 20:26:00,
2013-05-27 15:28:00,62.9,61.5,29.92,East,85,9.9,14.3,95,0.00,,,0.62,156.00,VWS V14.01,2013-05-27 20:28:00,
2013-05-27 15:29:00,63.0,61.5,29.92,East,93,8.8,14.3,95,0.00,,,0.62,134.00,VWS V14.01,2013-05-27 20:29:00,
2013-05-27 15:31:00,62.9,61.2,29.92,ESE,103,7.7,8.8,94,0.00,,,0.62,120.00,VWS V14.01,2013-05-27 20:31:00,
2013-05-27 15:33:00,62.7,61.0,29.92,ESE,108,8.8,8.8,94,0.00,,,0.62,142.00,VWS V14.01,2013-05-27 20:33:00,
2013-05-27 15:34:00,62.7,61.0,29.92,East,92,3.3,8.8,94,0.00,,,0.62,135.00,VWS V14.01,2013-05-27 20:34:00,
2013-05-27 15:36:00,62.6,60.8,29.92,ENE,73,7.7,8.8,94,0.00,,,0.62,128.00,VWS V14.01,2013-05-27 20:36:00,
2013-05-27 15:37:00,62.6,61.2,29.92,SE,126,6.6,9.9,95,0.00,,,0.62,125.00,VWS V14.01,2013-05-27 20:37:00,
2013-05-27 15:40:00,62.7,61.2,29.92,ESE,120,8.8,8.8,95,0.00,,,0.62,91.00,VWS V14.01,2013-05-27 20:40:00,
2013-05-27 15:41:00,62.7,61.2,29.92,ESE,112,4.4,8.8,95,0.00,,,0.62,91.00,VWS V14.01,2013-05-27 20:41:00,
2013-05-27 15:44:00,62.6,61.2,29.92,ESE,120,4.4,9.9,95,0.00,,,0.62,123.00,VWS V14.01,2013-05-27 20:44:00,
2013-05-27 15:46:00,62.7,61.2,29.93,SE,124,6.6,9.9,95,0.00,,,0.62,125.00,VWS V14.01,2013-05-27 20:46:00,
2013-05-27 15:47:00,62.7,61.2,29.93,East,79,5.5,9.9,95,0.00,,,0.62,114.00,VWS V14.01,2013-05-27 20:47:00,
2013-05-27 15:49:00,62.7,61.2,29.92,ESE,104,7.7,9.9,95,0.00,,,0.62,113.00,VWS V14.01,2013-05-27 20:49:00,
2013-05-27 15:51:00,62.7,61.2,29.92,ENE,73,7.7,7.7,95,0.00,,,0.62,118.00,VWS V14.01,2013-05-27 20:51:00,
2013-05-27 15:52:00,62.8,61.3,29.92,SE,125,1.1,8.8,95,0.00,,,0.62,113.00,VWS V14.01,2013-05-27 20:52:00,
2013-05-27 15:54:00,62.8,61.3,29.92,SSE,156,4.4,9.9,95,0.00,,,0.62,125.00,VWS V14.01,2013-05-27 20:54:00,
2013-05-27 15:56:00,62.9,61.5,29.92,NNW,343,0.0,11.0,95,0.00,,,0.62,102.00,VWS V14.01,2013-05-27 20:56:00,
2013-05-27 15:58:00,62.9,61.5,29.93,East,97,2.2,11.0,95,0.00,,,0.62,97.00,VWS V14.01,2013-05-27 20:58:00,
2013-05-27 15:59:00,62.9,61.5,29.93,East,92,9.9,11.0,95,0.00,,,0.62,102.00,VWS V14.01,2013-05-27 20:59:00,
2013-05-27 16:00:00,62.9,61.5,29.93,ESE,113,7.7,11.0,95,0.00,,,0.62,93.00,VWS V14.01,2013-05-27 21:00:00,
2013-05-27 16:03:00,63.0,61.5,29.93,ESE,107,7.7,9.9,95,0.00,,,0.62,69.00,VWS V14.01,2013-05-27 21:03:00,
2013-05-27 16:04:00,63.0,61.5,29.93,ESE,113,2.2,9.9,95,0.00,,,0.62,69.00,VWS V14.01,2013-05-27 21:04:00,
2013-05-27 16:05:00,63.0,61.5,29.93,ESE,118,3.3,9.9,95,0.00,,,0.62,67.00,VWS V14.01,2013-05-27 21:05:00,
2013-05-27 16:09:00,63.1,61.7,29.92,ENE,62,1.1,9.9,95,0.00,,,0.62,67.00,VWS V14.01,2013-05-27 21:09:00,
2013-05-27 16:10:00,63.1,61.7,29.92,ESE,108,2.2,9.9,95,0.00,,,0.62,60.00,VWS V14.01,2013-05-27 21:10:00,
2013-05-27 16:11:00,63.1,61.7,29.92,ENE,70,2.2,6.6,95,0.00,,,0.62,60.00,VWS V14.01,2013-05-27 21:11:00,
2013-05-27 16:15:00,63.1,61.7,29.92,East,97,2.2,6.6,95,0.00,,,0.62,123.00,VWS V14.01,2013-05-27 21:15:00,
2013-05-27 16:16:00,63.1,61.7,29.92,SSE,149,3.3,6.6,95,0.00,,,0.62,123.00,VWS V14.01,2013-05-27 21:16:00,
2013-05-27 16:17:00,63.1,61.7,29.92,East,87,0.0,6.6,95,0.00,,,0.62,151.00,VWS V14.01,2013-05-27 21:17:00,
2013-05-27 16:21:00,63.5,62.0,29.92,ENE,58,2.2,5.5,95,0.00,,,0.62,306.00,VWS V14.01,2013-05-27 21:21:00,
2013-05-27 16:22:00,63.6,62.4,29.91,ENE,67,1.1,5.5,96,0.00,,,0.62,318.00,VWS V14.01,2013-05-27 21:22:00,
2013-05-27 16:26:00,64.1,62.6,29.91,ESE,102,7.7,9.9,95,0.00,,,0.62,318.00,VWS V14.01,2013-05-27 21:26:00,
2013-05-27 16:27:00,64.2,62.7,29.91,East,100,5.5,9.9,95,0.00,,,0.62,297.00,VWS V14.01,2013-05-27 21:27:00,
2013-05-27 16:32:00,64.4,62.6,29.91,ESE,114,5.5,5.5,94,0.00,,,0.62,297.00,VWS V14.01,2013-05-27 21:32:00,
2013-05-27 16:33:00,64.4,62.6,29.91,ESE,114,2.2,7.7,94,0.00,,,0.62,271.00,VWS V14.01,2013-05-27 21:33:00,
2013-05-27 16:37:00,64.7,62.9,29.91,ESE,103,5.5,8.8,94,0.00,,,0.62,264.00,VWS V14.01,2013-05-27 21:37:00,
2013-05-27 16:38:00,64.6,62.8,29.91,ESE,120,8.8,8.8,94,0.00,,,0.62,223.00,VWS V14.01,2013-05-27 21:38:00,
2013-05-27 16:39:00,64.6,62.8,29.91,SSE,152,3.3,8.8,94,0.00,,,0.62,211.00,VWS V14.01,2013-05-27 21:39:00,
2013-05-27 16:43:00,64.6,62.8,29.91,East,83,1.1,8.8,94,0.00,,,0.62,156.00,VWS V14.01,2013-05-27 21:43:00,
2013-05-27 16:44:00,64.5,62.4,29.91,ESE,105,4.4,9.9,93,0.00,,,0.62,132.00,VWS V14.01,2013-05-27 21:44:00,
2013-05-27 16:49:00,64.5,62.7,29.90,East,89,0.0,9.9,94,0.00,,,0.62,125.00,VWS V14.01,2013-05-27 21:49:00,
2013-05-27 16:50:00,64.4,62.6,29.90,East,89,2.2,9.9,94,0.00,,,0.62,123.00,VWS V14.01,2013-05-27 21:50:00,
2013-05-27 16:51:00,64.4,62.6,29.90,East,89,1.1,2.2,94,0.00,,,0.62,104.00,VWS V14.01,2013-05-27 21:51:00,
2013-05-27 16:55:00,64.2,62.4,29.90,ENE,74,2.2,7.7,94,0.00,,,0.62,77.00,VWS V14.01,2013-05-27 21:55:00,
2013-05-27 16:56:00,64.2,62.4,29.90,SE,124,2.2,7.7,94,0.00,,,0.62,97.00,VWS V14.01,2013-05-27 21:56:00,
2013-05-27 17:00:00,64.1,62.3,29.90,East,88,3.3,7.7,94,0.00,,,0.62,107.00,VWS V14.01,2013-05-27 22:00:00,
2013-05-27 17:01:00,64.1,62.3,29.90,East,92,1.1,1.1,94,0.00,,,0.62,105.00,VWS V14.01,2013-05-27 22:01:00,
2013-05-27 17:06:00,64.0,62.2,29.89,ESE,123,3.3,11.0,94,0.00,,,0.62,69.00,VWS V14.01,2013-05-27 22:06:00,
2013-05-27 17:07:00,64.0,62.2,29.89,ENE,74,3.3,11.0,94,0.00,,,0.62,70.00,VWS V14.01,2013-05-27 22:07:00,
2013-05-27 17:11:00,63.8,62.0,29.89,East,85,5.5,5.5,94,0.00,,,0.62,56.00,VWS V14.01,2013-05-27 22:11:00,
2013-05-27 17:12:00,63.8,62.0,29.89,ENE,66,2.2,5.5,94,0.00,,,0.62,53.00,VWS V14.01,2013-05-27 22:12:00,
2013-05-27 17:15:00,63.7,62.0,29.89,East,95,6.6,6.6,94,0.00,,,0.62,74.00,VWS V14.01,2013-05-27 22:15:00,
2013-05-27 17:17:00,63.7,62.0,29.89,East,91,5.5,6.6,94,0.00,,,0.62,69.00,VWS V14.01,2013-05-27 22:17:00,
2013-05-27 17:18:00,63.7,62.0,29.89,NE,42,0.0,8.8,94,0.00,,,0.62,79.00,VWS V14.01,2013-05-27 22:18:00,
2013-05-27 17:19:00,63.7,62.0,29.89,East,80,2.2,8.8,94,0.00,,,0.62,79.00,VWS V14.01,2013-05-27 22:19:00,
2013-05-27 17:21:00,63.6,61.8,29.89,ENE,78,7.7,7.7,94,0.00,,,0.62,81.00,VWS V14.01,2013-05-27 22:21:00,
2013-05-27 17:22:00,63.6,61.8,29.89,SE,135,5.5,7.7,94,0.00,,,0.62,74.00,VWS V14.01,2013-05-27 22:22:00,
2013-05-27 17:23:00,63.6,61.8,29.89,East,88,2.2,7.7,94,0.00,,,0.62,74.00,VWS V14.01,2013-05-27 22:23:00,
2013-05-27 17:24:00,63.6,61.8,29.88,ENE,73,3.3,7.7,94,0.00,,,0.62,70.00,VWS V14.01,2013-05-27 22:24:00,
2013-05-27 17:27:00,63.7,62.0,29.89,SE,131,3.3,8.8,94,0.00,,,0.62,62.00,VWS V14.01,2013-05-27 22:27:00,
2013-05-27 17:29:00,63.7,62.0,29.89,ESE,102,5.5,8.8,94,0.00,,,0.62,60.00,VWS V14.01,2013-05-27 22:29:00,
2013-05-27 17:30:00,63.7,62.0,29.89,ESE,110,4.4,8.8,94,0.00,,,0.62,58.00,VWS V14.01,2013-05-27 22:30:00,
2013-05-27 17:32:00,63.7,62.0,29.89,ENE,73,0.0,5.5,94,0.00,,,0.62,69.00,VWS V14.01,2013-05-27 22:32:00,
2013-05-27 17:34:00,63.8,62.0,29.89,ESE,122,2.2,7.7,94,0.00,,,0.62,72.00,VWS V14.01,2013-05-27 22:34:00,
2013-05-27 17:35:00,63.7,62.0,29.89,East,82,2.2,7.7,94,0.00,,,0.62,69.00,VWS V14.01,2013-05-27 22:35:00,
2013-05-27 17:36:00,63.7,62.0,29.88,ESE,104,4.4,7.7,94,0.00,,,0.62,67.00,VWS V14.01,2013-05-27 22:36:00,
2013-05-27 17:37:00,63.7,62.0,29.88,SE,125,1.1,7.7,94,0.00,,,0.62,58.00,VWS V14.01,2013-05-27 22:37:00,
2013-05-27 17:39:00,63.8,62.0,29.88,NE,48,2.2,7.7,94,0.00,,,0.62,63.00,VWS V14.01,2013-05-27 22:39:00,
2013-05-27 17:40:00,63.8,62.0,29.88,ESE,122,3.3,7.7,94,0.00,,,0.62,60.00,VWS V14.01,2013-05-27 22:40:00,
2013-05-27 17:41:00,63.8,62.0,29.88,ENE,65,4.4,5.5,94,0.00,,,0.62,60.00,VWS V14.01,2013-05-27 22:41:00,
2013-05-27 17:42:00,63.8,62.0,29.88,ENE,58,2.2,5.5,94,0.00,,,0.62,69.00,VWS V14.01,2013-05-27 22:42:00,
2013-05-27 17:44:00,63.8,62.0,29.87,East,81,5.5,6.6,94,0.00,,,0.62,76.00,VWS V14.01,2013-05-27 22:44:00,
2013-05-27 17:45:00,63.8,62.0,29.87,ESE,102,4.4,7.7,94,0.00,,,0.62,77.00,VWS V14.01,2013-05-27 22:45:00,
2013-05-27 17:46:00,63.8,62.0,29.87,ESE,105,0.0,7.7,94,0.00,,,0.62,76.00,VWS V14.01,2013-05-27 22:46:00,
2013-05-27 17:47:00,63.8,62.0,29.87,ENE,68,4.4,7.7,94,0.00,,,0.62,76.00,VWS V14.01,2013-05-27 22:47:00,
2013-05-27 17:50:00,63.8,62.0,29.87,East,91,5.5,7.7,94,0.00,,,0.62,51.00,VWS V14.01,2013-05-27 22:50:00,
2013-05-27 17:51:00,63.8,62.0,29.87,ENE,73,0.0,2.2,94,0.00,,,0.62,49.00,VWS V14.01,2013-05-27 22:51:00,
2013-05-27 17:52:00,63.8,62.0,29.87,ESE,105,8.8,8.8,94,0.00,,,0.62,51.00,VWS V14.01,2013-05-27 22:52:00,
2013-05-27 17:55:00,63.8,62.0,29.89,East,79,0.0,8.8,94,0.00,,,0.62,35.00,VWS V14.01,2013-05-27 22:55:00,
2013-05-27 17:56:00,63.8,62.0,29.89,East,79,0.0,8.8,94,0.00,,,0.62,32.00,VWS V14.01,2013-05-27 22:56:00,
2013-05-27 17:57:00,63.8,62.3,29.89,East,79,0.0,8.8,95,0.00,,,0.62,28.00,VWS V14.01,2013-05-27 22:57:00,
2013-05-27 17:58:00,63.8,62.3,29.89,East,79,0.0,8.8,95,0.00,,,0.62,28.00,VWS V14.01,2013-05-27 22:58:00,
2013-05-27 17:59:00,63.8,62.3,29.89,East,79,0.0,8.8,95,0.00,,,0.62,26.00,VWS V14.01,2013-05-27 22:59:00,
2013-05-27 18:02:00,63.7,62.2,29.90,East,79,1.1,2.2,95,0.00,,,0.62,23.00,VWS V14.01,2013-05-27 23:02:00,
2013-05-27 18:03:00,63.8,62.0,29.89,East,79,1.1,2.2,94,0.00,,,0.62,26.00,VWS V14.01,2013-05-27 23:03:00,
2013-05-27 18:04:00,63.7,62.2,29.89,East,89,1.1,2.2,95,0.00,,,0.62,32.00,VWS V14.01,2013-05-27 23:04:00,
2013-05-27 18:08:00,63.6,62.2,29.87,East,79,11.0,11.0,95,0.00,,,0.62,58.00,VWS V14.01,2013-05-27 23:08:00,
2013-05-27 18:09:00,63.6,62.2,29.86,East,89,1.1,11.0,95,0.00,,,0.62,62.00,VWS V14.01,2013-05-27 23:09:00,
2013-05-27 18:13:00,63.5,62.0,29.86,East,91,5.5,12.1,95,0.00,,,0.62,76.00,VWS V14.01,2013-05-27 23:13:00,
2013-05-27 18:14:00,63.5,62.0,29.86,ENE,64,9.9,12.1,95,0.00,,,0.62,72.00,VWS V14.01,2013-05-27 23:14:00,
2013-05-27 18:15:00,63.5,62.0,29.86,East,94,6.6,12.1,95,0.00,,,0.62,72.00,VWS V14.01,2013-05-27 23:15:00,
2013-05-27 18:19:00,63.4,62.0,29.87,ESE,114,2.2,12.1,95,0.00,,,0.62,39.00,VWS V14.01,2013-05-27 23:19:00,
2013-05-27 18:20:00,63.4,62.0,29.87,ESE,119,7.7,12.1,95,0.00,,,0.62,33.00,VWS V14.01,2013-05-27 23:20:00,
2013-05-27 18:21:00,63.4,62.0,29.88,East,99,6.6,6.6,95,0.00,,,0.62,33.00,VWS V14.01,2013-05-27 23:21:00,
2013-05-27 18:25:00,63.4,62.0,29.88,ENE,66,0.0,6.6,95,0.00,,,0.62,26.00,VWS V14.01,2013-05-27 23:25:00,
2013-05-27 18:26:00,63.4,62.0,29.88,NE,54,2.2,6.6,95,0.00,,,0.62,26.00,VWS V14.01,2013-05-27 23:26:00,
2013-05-27 18:30:00,63.4,62.0,29.88,ENE,74,1.1,1.1,95,0.00,,,0.62,23.00,VWS V14.01,2013-05-27 23:30:00,
2013-05-27 18:31:00,63.4,62.0,29.88,ENE,74,0.0,2.2,95,0.00,,,0.62,19.00,VWS V14.01,2013-05-27 23:31:00,
2013-05-27 18:32:00,63.4,62.0,29.89,ENE,74,0.0,2.2,95,0.00,,,0.62,19.00,VWS V14.01,2013-05-27 23:32:00,
2013-05-27 18:36:00,63.3,61.8,29.89,ENE,78,3.3,5.5,95,0.00,,,0.62,14.00,VWS V14.01,2013-05-27 23:36:00,
2013-05-27 18:37:00,63.3,61.8,29.89,ENE,63,2.2,5.5,95,0.00,,,0.62,14.00,VWS V14.01,2013-05-27 23:37:00,
2013-05-27 18:38:00,63.3,61.8,29.89,East,82,3.3,5.5,95,0.00,,,0.62,14.00,VWS V14.01,2013-05-27 23:38:00,
2013-05-27 18:41:00,63.2,61.8,29.89,NNE,23,0.0,5.5,95,0.00,,,0.62,19.00,VWS V14.01,2013-05-27 23:41:00,
2013-05-27 18:42:00,63.2,61.8,29.89,ENE,66,4.4,6.6,95,0.00,,,0.62,21.00,VWS V14.01,2013-05-27 23:42:00,
2013-05-27 18:43:00,63.2,61.8,29.89,East,81,2.2,6.6,95,0.00,,,0.62,21.00,VWS V14.01,2013-05-27 23:43:00,
2013-05-27 18:44:00,63.2,61.8,29.89,ENE,75,2.2,6.6,95,0.00,,,0.62,23.00,VWS V14.01,2013-05-27 23:44:00,
2013-05-27 18:47:00,63.2,61.8,29.89,ESE,119,5.5,8.8,95,0.00,,,0.62,28.00,VWS V14.01,2013-05-27 23:47:00,
2013-05-27 18:48:00,63.1,61.7,29.89,SE,127,3.3,8.8,95,0.00,,,0.62,30.00,VWS V14.01,2013-05-27 23:48:00,
2013-05-27 18:49:00,63.1,61.7,29.89,NE,41,3.3,8.8,95,0.00,,,0.62,30.00,VWS V14.01,2013-05-27 23:49:00,
2013-05-27 18:50:00,63.1,61.7,29.89,ENE,70,2.2,8.8,95,0.00,,,0.62,32.00,VWS V14.01,2013-05-27 23:50:00,
2013-05-27 18:52:00,63.1,61.7,29.88,East,100,5.5,8.8,95,0.00,,,0.62,35.00,VWS V14.01,2013-05-27 23:52:00,
2013-05-27 18:53:00,63.1,61.7,29.89,ESE,102,3.3,8.8,95,0.00,,,0.62,35.00,VWS V14.01,2013-05-27 23:53:00,
2013-05-27 18:54:00,63.1,61.7,29.89,East,89,0.0,8.8,95,0.00,,,0.62,35.00,VWS V14.01,2013-05-27 23:54:00,
2013-05-27 18:58:00,62.9,61.5,29.88,SE,137,6.6,8.8,95,0.00,,,0.62,42.00,VWS V14.01,2013-05-27 23:58:00,
2013-05-27 18:59:00,62.9,61.5,29.88,East,81,5.5,8.8,95,0.00,,,0.62,40.00,VWS V14.01,2013-05-27 23:59:00,
2013-05-27 19:00:00,62.9,61.5,29.88,East,93,5.5,8.8,95,0.00,,,0.62,40.00,VWS V14.01,2013-05-28 00:00:00,
2013-05-27 19:03:00,62.8,61.3,29.89,East,101,1.1,6.6,95,0.00,,,0.62,39.00,VWS V14.01,2013-05-28 00:03:00,
2013-05-27 19:04:00,62.8,61.3,29.89,East,81,1.1,6.6,95,0.00,,,0.62,39.00,VWS V14.01,2013-05-28 00:04:00,
2013-05-27 19:05:00,62.8,61.3,29.89,ENE,73,2.2,6.6,95,0.00,,,0.62,37.00,VWS V14.01,2013-05-28 00:05:00,
2013-05-27 19:06:00,62.8,61.3,29.89,ENE,60,0.0,6.6,95,0.00,,,0.62,39.00,VWS V14.01,2013-05-28 00:06:00,
2013-05-27 19:08:00,62.9,61.5,29.89,ENE,69,0.0,6.6,95,0.00,,,0.62,42.00,VWS V14.01,2013-05-28 00:08:00,
2013-05-27 19:09:00,62.8,61.3,29.89,ENE,73,2.2,6.6,95,0.00,,,0.62,46.00,VWS V14.01,2013-05-28 00:09:00,
2013-05-27 19:10:00,62.9,61.5,29.89,East,83,2.2,6.6,95,0.00,,,0.62,47.00,VWS V14.01,2013-05-28 00:10:00,
2013-05-27 19:11:00,62.8,61.3,29.89,ENE,73,2.2,7.7,95,0.00,,,0.62,49.00,VWS V14.01,2013-05-28 00:11:00,
2013-05-27 19:14:00,62.7,61.2,29.89,SSE,147,1.1,7.7,95,0.00,,,0.62,47.00,VWS V14.01,2013-05-28 00:14:00,
2013-05-27 19:15:00,62.7,61.2,29.89,SE,126,3.3,7.7,95,0.00,,,0.62,47.00,VWS V14.01,2013-05-28 00:15:00,
2013-05-27 19:17:00,62.7,61.2,29.89,ENE,77,0.0,7.7,95,0.00,,,0.62,44.00,VWS V14.01,2013-05-28 00:17:00,
2013-05-27 19:18:00,62.7,61.2,29.89,ESE,109,0.0,7.7,95,0.00,,,0.62,42.00,VWS V14.01,2013-05-28 00:18:00,
2013-05-27 19:19:00,62.7,61.2,29.89,East,88,3.3,7.7,95,0.00,,,0.62,40.00,VWS V14.01,2013-05-28 00:19:00,
2013-05-27 19:20:00,62.7,61.2,29.89,ESE,108,4.4,7.7,95,0.00,,,0.62,40.00,VWS V14.01,2013-05-28 00:20:00,
2013-05-27 19:22:00,62.6,61.2,29.88,ENE,63,2.2,7.7,95,0.00,,,0.62,44.00,VWS V14.01,2013-05-28 00:22:00,
2013-05-27 19:23:00,62.6,61.2,29.88,East,84,7.7,7.7,95,0.00,,,0.62,46.00,VWS V14.01,2013-05-28 00:23:00,
2013-05-27 19:25:00,62.7,61.2,29.88,East,88,2.2,7.7,95,0.00,,,0.62,42.00,VWS V14.01,2013-05-28 00:25:00,
2013-05-27 19:27:00,62.7,61.2,29.88,ESE,122,4.4,7.7,95,0.00,,,0.62,37.00,VWS V14.01,2013-05-28 00:27:00,
2013-05-27 19:28:00,62.7,61.2,29.88,East,85,2.2,7.7,95,0.00,,,0.62,35.00,VWS V14.01,2013-05-28 00:28:00,
2013-05-27 19:30:00,62.7,61.2,29.88,East,79,7.7,7.7,95,0.00,,,0.62,32.00,VWS V14.01,2013-05-28 00:30:00,
2013-05-27 19:33:00,62.6,61.2,29.89,SE,129,4.4,5.5,95,0.00,,,0.62,30.00,VWS V14.01,2013-05-28 00:33:00,
2013-05-27 19:34:00,62.6,61.2,29.89,ENE,64,2.2,6.6,95,0.00,,,0.62,25.00,VWS V14.01,2013-05-28 00:34:00,
2013-05-27 19:35:00,62.6,61.2,29.89,ESE,106,1.1,7.7,95,0.00,,,0.62,25.00,VWS V14.01,2013-05-28 00:35:00,
2013-05-27 19:37:00,62.5,61.0,29.89,East,90,6.6,9.9,95,0.00,,,0.62,21.00,VWS V14.01,2013-05-28 00:37:00,
2013-05-27 19:38:00,62.5,61.0,29.89,ENE,77,2.2,9.9,95,0.00,,,0.62,19.00,VWS V14.01,2013-05-28 00:38:00,
2013-05-27 19:39:00,62.5,61.0,29.89,East,100,5.5,9.9,95,0.00,,,0.62,19.00,VWS V14.01,2013-05-28 00:39:00,
2013-05-27 19:40:00,62.5,61.0,29.89,ENE,65,3.3,9.9,95,0.00,,,0.62,16.00,VWS V14.01,2013-05-28 00:40:00,
2013-05-27 19:41:00,62.4,61.0,29.89,ENE,66,3.3,7.7,95,0.00,,,0.62,16.00,VWS V14.01,2013-05-28 00:41:00,
2013-05-27 19:43:00,62.3,60.8,29.89,East,87,6.6,8.8,95,0.00,,,0.62,14.00,VWS V14.01,2013-05-28 00:43:00,
2013-05-27 19:44:00,62.3,60.8,29.89,East,95,1.1,8.8,95,0.00,,,0.62,14.00,VWS V14.01,2013-05-28 00:44:00,
2013-05-27 19:45:00,62.3,60.8,29.89,ENE,64,2.2,8.8,95,0.00,,,0.62,14.00,VWS V14.01,2013-05-28 00:45:00,
2013-05-27 19:46:00,62.3,60.8,29.89,ENE,63,2.2,8.8,95,0.00,,,0.62,14.00,VWS V14.01,2013-05-28 00:46:00,
2013-05-27 19:49:00,62.2,60.8,29.89,East,99,8.8,11.0,95,0.00,,,0.62,14.00,VWS V14.01,2013-05-28 00:49:00,
2013-05-27 19:51:00,62.2,60.8,29.89,ENE,76,4.4,7.7,95,0.00,,,0.62,14.00,VWS V14.01,2013-05-28 00:51:00,
2013-05-27 19:52:00,62.2,60.8,29.88,ENE,74,2.2,7.7,95,0.00,,,0.62,14.00,VWS V14.01,2013-05-28 00:52:00,
2013-05-27 19:53:00,62.1,60.7,29.88,SSE,148,4.4,9.9,95,0.00,,,0.62,12.00,VWS V14.01,2013-05-28 00:53:00,
2013-05-27 19:54:00,62.1,60.7,29.88,SE,129,1.1,9.9,95,0.00,,,0.62,12.00,VWS V14.01,2013-05-28 00:54:00,
2013-05-27 19:55:00,62.1,60.7,29.88,NE,50,5.5,9.9,95,0.00,,,0.62,12.00,VWS V14.01,2013-05-28 00:55:00,
2013-05-27 19:57:00,62.0,60.6,29.88,ENE,66,3.3,9.9,95,0.00,,,0.62,12.00,VWS V14.01,2013-05-28 00:57:00,
2013-05-27 19:59:00,62.0,60.6,29.87,ENE,62,0.0,9.9,95,0.00,,,0.62,12.00,VWS V14.01,2013-05-28 00:59:00,
2013-05-27 20:00:00,62.0,60.6,29.87,NE,50,5.5,9.9,95,0.00,,,0.62,12.00,VWS V14.01,2013-05-28 01:00:00,
2013-05-27 20:03:00,61.9,60.5,29.86,ESE,110,4.4,12.1,95,0.00,,,0.62,11.00,VWS V14.01,2013-05-28 01:03:00,
2013-05-27 20:04:00,61.9,60.5,29.86,NNE,25,5.5,12.1,95,0.00,,,0.62,11.00,VWS V14.01,2013-05-28 01:04:00,
2013-05-27 20:05:00,61.9,60.5,29.86,East,81,5.5,12.1,95,0.00,,,0.62,11.00,VWS V14.01,2013-05-28 01:05:00,
2013-05-27 20:06:00,61.9,60.5,29.86,NE,54,4.4,12.1,95,0.00,,,0.62,11.00,VWS V14.01,2013-05-28 01:06:00,
2013-05-27 20:09:00,61.8,60.4,29.86,East,88,7.7,12.1,95,0.00,,,0.62,9.00,VWS V14.01,2013-05-28 01:09:00,
2013-05-27 20:10:00,61.7,60.3,29.86,ENE,58,7.7,12.1,95,0.00,,,0.62,9.00,VWS V14.01,2013-05-28 01:10:00,
2013-05-27 20:11:00,61.6,60.2,29.86,East,83,5.5,7.7,95,0.00,,,0.62,9.00,VWS V14.01,2013-05-28 01:11:00,
2013-05-27 20:14:00,61.5,60.1,29.86,NE,41,2.2,7.7,95,0.00,,,0.62,9.00,VWS V14.01,2013-05-28 01:14:00,
2013-05-27 20:15:00,61.5,60.1,29.86,East,93,6.6,7.7,95,0.00,,,0.62,9.00,VWS V14.01,2013-05-28 01:15:00,
2013-05-27 20:17:00,61.4,60.0,29.87,NE,47,4.4,8.8,95,0.00,,,0.62,9.00,VWS V14.01,2013-05-28 01:17:00,
2013-05-27 20:20:00,61.3,59.9,29.87,NE,50,4.4,5.5,95,0.00,,,0.62,7.00,VWS V14.01,2013-05-28 01:20:00,
2013-05-27 20:21:00,61.2,59.8,29.87,East,89,3.3,5.5,95,0.00,,,0.62,5.00,VWS V14.01,2013-05-28 01:21:00,
2013-05-27 20:22:00,61.2,59.8,29.87,SE,133,4.4,8.8,95,0.00,,,0.62,5.00,VWS V14.01,2013-05-28 01:22:00,
2013-05-27 20:23:00,61.2,59.8,29.87,ESE,106,2.2,8.8,95,0.00,,,0.62,0.00,VWS V14.01,2013-05-28 01:23:00,
2013-05-27 20:25:00,61.1,59.7,29.87,ESE,122,5.5,8.8,95,0.00,,,0.62,0.00,VWS V14.01,2013-05-28 01:25:00,
2013-05-27 20:27:00,61.1,59.7,29.87,ENE,78,1.1,8.8,95,0.00,,,0.62,0.00,VWS V14.01,2013-05-28 01:27:00,
2013-05-27 20:28:00,61.0,59.6,29.87,SE,125,3.3,8.8,95,0.00,,,0.62,0.00,VWS V14.01,2013-05-28 01:28:00,
2013-05-27 20:30:00,61.0,59.6,29.87,ENE,75,4.4,8.8,95,0.00,,,0.62,0.00,VWS V14.01,2013-05-28 01:30:00,
2013-05-27 20:31:00,61.0,59.6,29.87,East,84,8.8,8.8,95,0.00,,,0.62,0.00,VWS V14.01,2013-05-28 01:31:00,
2013-05-27 20:32:00,60.9,59.5,29.87,East,100,3.3,8.8,95,0.00,,,0.62,0.00,VWS V14.01,2013-05-28 01:32:00,
2013-05-27 20:33:00,60.9,59.8,29.87,East,81,6.6,9.9,96,0.00,,,0.62,0.00,VWS V14.01,2013-05-28 01:33:00,
2013-05-27 20:34:00,60.9,59.5,29.87,NE,45,5.5,9.9,95,0.00,,,0.62,0.00,VWS V14.01,2013-05-28 01:34:00,
2013-05-27 20:35:00,60.8,59.4,29.87,East,83,2.2,9.9,95,0.00,,,0.62,0.00,VWS V14.01,2013-05-28 01:35:00,
2013-05-27 20:36:00,60.8,59.7,29.87,East,95,6.6,9.9,96,0.00,,,0.62,0.00,VWS V14.01,2013-05-28 01:36:00,
2013-05-27 20:37:00,60.7,59.6,29.87,ENE,62,5.5,9.9,96,0.00,,,0.62,0.00,VWS V14.01,2013-05-28 01:37:00,
2013-05-27 20:39:00,60.7,59.3,29.87,East,97,7.7,9.9,95,0.00,,,0.62,0.00,VWS V14.01,2013-05-28 01:39:00,
2013-05-27 20:40:00,60.6,59.2,29.87,ESE,122,2.2,9.9,95,0.00,,,0.62,0.00,VWS V14.01,2013-05-28 01:40:00,
2013-05-27 20:41:00,60.6,59.2,29.87,ESE,111,1.1,4.4,95,0.00,,,0.62,0.00,VWS V14.01,2013-05-28 01:41:00,
2013-05-27 20:43:00,60.5,59.4,29.87,East,84,7.7,7.7,96,0.00,,,0.62,0.00,VWS V14.01,2013-05-28 01:43:00,
2013-05-27 20:44:00,60.5,59.4,29.87,East,91,2.2,11.0,96,0.00,,,0.62,0.00,VWS V14.01,2013-05-28 01:44:00,
2013-05-27 20:46:00,60.5,59.4,29.87,East,85,5.5,11.0,96,0.00,,,0.62,0.00,VWS V14.01,2013-05-28 01:46:00,
2013-05-27 20:49:00,60.4,59.3,29.87,NE,55,4.4,11.0,96,0.00,,,0.62,0.00,VWS V14.01,2013-05-28 01:49:00,
2013-05-27 20:50:00,60.4,59.3,29.87,ESE,107,2.2,11.0,96,0.00,,,0.62,0.00,VWS V14.01,2013-05-28 01:50:00,
2013-05-27 20:51:00,60.3,59.2,29.87,ESE,112,5.5,5.5,96,0.00,,,0.62,0.00,VWS V14.01,2013-05-28 01:51:00,
2013-05-27 20:53:00,60.3,59.2,29.87,ENE,71,1.1,5.5,96,0.00,,,0.62,0.00,VWS V14.01,2013-05-28 01:53:00,
2013-05-27 20:54:00,60.3,59.2,29.87,ENE,62,4.4,5.5,96,0.00,,,0.62,0.00,VWS V14.01,2013-05-28 01:54:00,
2013-05-27 20:55:00,60.3,59.2,29.87,ENE,66,1.1,5.5,96,0.00,,,0.62,0.00,VWS V14.01,2013-05-28 01:55:00,
2013-05-27 20:57:00,60.3,59.2,29.88,ENE,64,2.2,5.5,96,0.00,,,0.62,0.00,VWS V14.01,2013-05-28 01:57:00,
2013-05-27 21:00:00,60.3,59.2,29.88,ENE,78,6.6,6.6,96,0.00,,,0.62,0.00,VWS V14.01,2013-05-28 02:00:00,
2013-05-27 21:02:00,60.3,59.2,29.87,ENE,58,2.2,4.4,96,0.00,,,0.62,0.00,VWS V14.01,2013-05-28 02:02:00,
2013-05-27 21:03:00,60.3,59.2,29.88,SSE,147,3.3,5.5,96,0.00,,,0.62,0.00,VWS V14.01,2013-05-28 02:03:00,
2013-05-27 21:05:00,60.3,59.2,29.88,ESE,121,2.2,5.5,96,0.00,,,0.62,0.00,VWS V14.01,2013-05-28 02:05:00,
2013-05-27 21:07:00,60.3,59.2,29.88,East,99,2.2,5.5,96,0.00,,,0.62,0.00,VWS V14.01,2013-05-28 02:07:00,
2013-05-27 21:09:00,60.3,59.2,29.88,ESE,106,4.4,5.5,96,0.00,,,0.62,0.00,VWS V14.01,2013-05-28 02:09:00,
2013-05-27 21:10:00,60.3,59.2,29.88,East,97,2.2,5.5,96,0.00,,,0.62,0.00,VWS V14.01,2013-05-28 02:10:00,
2013-05-27 21:12:00,60.3,59.2,29.88,East,98,1.1,3.3,96,0.00,,,0.62,0.00,VWS V14.01,2013-05-28 02:12:00,
2013-05-27 21:13:00,60.4,59.3,29.88,ENE,73,0.0,3.3,96,0.00,,,0.62,0.00,VWS V14.01,2013-05-28 02:13:00,
2013-05-27 21:14:00,60.4,59.3,29.88,ESE,119,1.1,3.3,96,0.00,,,0.62,0.00,VWS V14.01,2013-05-28 02:14:00,
2013-05-27 21:16:00,60.4,59.3,29.88,East,81,3.3,5.5,96,0.00,,,0.62,0.00,VWS V14.01,2013-05-28 02:16:00,
2013-05-27 21:18:00,60.4,59.3,29.88,ESE,102,1.1,5.5,96,0.00,,,0.62,0.00,VWS V14.01,2013-05-28 02:18:00,
2013-05-27 21:19:00,60.4,59.3,29.88,East,101,2.2,5.5,96,0.00,,,0.62,0.00,VWS V14.01,2013-05-28 02:19:00,
2013-05-27 21:21:00,60.4,59.3,29.88,ESE,106,3.3,5.5,96,0.00,,,0.62,0.00,VWS V14.01,2013-05-28 02:21:00,
2013-05-27 21:23:00,60.4,59.3,29.88,ENE,66,1.1,5.5,96,0.00,,,0.62,0.00,VWS V14.01,2013-05-28 02:23:00,
2013-05-27 21:24:00,60.4,59.3,29.88,East,85,2.2,5.5,96,0.00,,,0.62,0.00,VWS V14.01,2013-05-28 02:24:00,
2013-05-27 21:25:00,60.4,59.3,29.88,East,79,1.1,5.5,96,0.00,,,0.62,0.00,VWS V14.01,2013-05-28 02:25:00,
2013-05-27 21:26:00,60.4,59.3,29.88,East,79,2.2,5.5,96,0.00,,,0.62,0.00,VWS V14.01,2013-05-28 02:26:00,
2013-05-27 21:28:00,60.4,59.3,29.88,ESE,106,4.4,6.6,96,0.00,,,0.62,0.00,VWS V14.01,2013-05-28 02:28:00,
2013-05-27 21:29:00,60.4,59.3,29.88,ENE,71,3.3,6.6,96,0.00,,,0.62,0.00,VWS V14.01,2013-05-28 02:29:00,
2013-05-27 21:30:00,60.4,59.3,29.88,East,87,1.1,6.6,96,0.00,,,0.62,0.00,VWS V14.01,2013-05-28 02:30:00,
2013-05-27 21:31:00,60.4,59.3,29.88,East,79,7.7,7.7,96,0.00,,,0.62,0.00,VWS V14.01,2013-05-28 02:31:00,
2013-05-27 21:32:00,60.4,59.3,29.88,ESE,120,2.2,7.7,96,0.00,,,0.62,0.00,VWS V14.01,2013-05-28 02:32:00,
2013-05-27 21:34:00,60.4,59.5,29.88,East,97,1.1,8.8,97,0.00,,,0.62,0.00,VWS V14.01,2013-05-28 02:34:00,
2013-05-27 21:35:00,60.3,59.2,29.88,East,95,0.0,8.8,96,0.00,,,0.62,0.00,VWS V14.01,2013-05-28 02:35:00,
2013-05-27 21:36:00,60.3,59.2,29.87,ENE,67,4.4,8.8,96,0.00,,,0.62,0.00,VWS V14.01,2013-05-28 02:36:00,
2013-05-27 21:37:00,60.3,59.2,29.88,East,93,3.3,8.8,96,0.00,,,0.62,0.00,VWS V14.01,2013-05-28 02:37:00,
2013-05-27 21:38:00,60.3,59.5,29.88,East,100,2.2,8.8,97,0.00,,,0.62,0.00,VWS V14.01,2013-05-28 02:38:00,
2013-05-27 21:40:00,60.3,59.5,29.88,East,91,3.3,8.8,97,0.00,,,0.62,0.00,VWS V14.01,2013-05-28 02:40:00,
2013-05-27 21:41:00,60.3,59.2,29.88,East,88,3.3,5.5,96,0.00,,,0.62,0.00,VWS V14.01,2013-05-28 02:41:00,
2013-05-27 21:43:00,60.3,59.5,29.88,ESE,105,3.3,5.5,97,0.00,,,0.62,0.00,VWS V14.01,2013-05-28 02:43:00,
2013-05-27 21:44:00,60.3,59.2,29.88,East,95,0.0,5.5,96,0.00,,,0.62,0.00,VWS V14.01,2013-05-28 02:44:00,
2013-05-27 21:45:00,60.3,59.2,29.88,SE,131,4.4,5.5,96,0.00,,,0.62,0.00,VWS V14.01,2013-05-28 02:45:00,
2013-05-27 21:46:00,60.3,59.2,29.88,ESE,106,2.2,6.6,96,0.00,,,0.62,0.00,VWS V14.01,2013-05-28 02:46:00,
2013-05-27 21:49:00,60.3,59.2,29.88,ESE,108,2.2,6.6,96,0.00,,,0.62,0.00,VWS V14.01,2013-05-28 02:49:00,
2013-05-27 21:50:00,60.3,59.2,29.89,ENE,69,1.1,6.6,96,0.00,,,0.62,0.00,VWS V14.01,2013-05-28 02:50:00,
2013-05-27 21:51:00,60.3,59.2,29.88,ESE,119,5.5,5.5,96,0.00,,,0.62,0.00,VWS V14.01,2013-05-28 02:51:00,
2013-05-27 21:54:00,60.3,59.2,29.89,SE,125,4.4,5.5,96,0.00,,,0.62,0.00,VWS V14.01,2013-05-28 02:54:00,
2013-05-27 21:56:00,60.3,59.2,29.88,ESE,104,5.5,7.7,96,0.00,,,0.62,0.00,VWS V14.01,2013-05-28 02:56:00,
2013-05-27 21:57:00,60.3,59.2,29.88,ESE,112,2.2,7.7,96,0.00,,,0.62,0.00,VWS V14.01,2013-05-28 02:57:00,
2013-05-27 21:58:00,60.3,59.2,29.88,East,99,5.5,7.7,96,0.00,,,0.62,0.00,VWS V14.01,2013-05-28 02:58:00,
2013-05-27 21:59:00,60.3,59.2,29.88,SE,128,2.2,7.7,96,0.00,,,0.62,0.00,VWS V14.01,2013-05-28 02:59:00,
2013-05-27 22:01:00,60.2,59.1,29.88,ESE,119,4.4,4.4,96,0.00,,,0.62,0.00,VWS V14.01,2013-05-28 03:01:00,
2013-05-27 22:03:00,60.2,59.1,29.89,SE,124,3.3,4.4,96,0.00,,,0.62,0.00,VWS V14.01,2013-05-28 03:03:00,
2013-05-27 22:06:00,60.2,59.1,29.89,ESE,117,3.3,7.7,96,0.00,,,0.62,0.00,VWS V14.01,2013-05-28 03:06:00,
2013-05-27 22:07:00,60.2,59.1,29.89,ESE,107,1.1,7.7,96,0.00,,,0.62,0.00,VWS V14.01,2013-05-28 03:07:00,
2013-05-27 22:08:00,60.2,59.1,29.89,SE,124,2.2,7.7,96,0.00,,,0.62,0.00,VWS V14.01,2013-05-28 03:08:00,
2013-05-27 22:11:00,60.2,59.1,29.88,ESE,102,1.1,2.2,96,0.00,,,0.62,0.00,VWS V14.01,2013-05-28 03:11:00,
2013-05-27 22:12:00,60.2,59.1,29.88,ESE,108,3.3,3.3,96,0.00,,,0.62,0.00,VWS V14.01,2013-05-28 03:12:00,
2013-05-27 22:13:00,60.2,59.1,29.89,East,93,1.1,3.3,96,0.00,,,0.62,0.00,VWS V14.01,2013-05-28 03:13:00,
2013-05-27 22:14:00,60.2,59.1,29.89,ESE,118,4.4,5.5,96,0.00,,,0.62,0.00,VWS V14.01,2013-05-28 03:14:00,
2013-05-27 22:17:00,60.2,59.1,29.89,East,81,1.1,5.5,96,0.00,,,0.62,0.00,VWS V14.01,2013-05-28 03:17:00,
2013-05-27 22:18:00,60.2,59.1,29.88,ENE,75,0.0,5.5,96,0.00,,,0.62,0.00,VWS V14.01,2013-05-28 03:18:00,
2013-05-27 22:19:00,60.2,59.3,29.88,East,99,3.3,5.5,97,0.00,,,0.62,0.00,VWS V14.01,2013-05-28 03:19:00,
2013-05-27 22:21:00,60.2,59.3,29.88,SE,136,4.4,5.5,97,0.00,,,0.62,0.00,VWS V14.01,2013-05-28 03:21:00,
2013-05-27 22:23:00,60.2,59.3,29.88,ESE,108,5.5,8.8,97,0.00,,,0.62,0.00,VWS V14.01,2013-05-28 03:23:00,
2013-05-27 22:25:00,60.2,59.3,29.88,SE,138,2.2,8.8,97,0.00,,,0.62,0.00,VWS V14.01,2013-05-28 03:25:00,
2013-05-27 22:28:00,60.2,59.3,29.88,SSE,147,5.5,8.8,97,0.00,,,0.62,0.00,VWS V14.01,2013-05-28 03:28:00,
2013-05-27 22:29:00,60.2,59.3,29.88,SE,131,3.3,8.8,97,0.00,,,0.62,0.00,VWS V14.01,2013-05-28 03:29:00,
2013-05-27 22:30:00,60.2,59.3,29.88,ESE,116,2.2,8.8,97,0.00,,,0.62,0.00,VWS V14.01,2013-05-28 03:30:00,
2013-05-27 22:31:00,60.2,59.3,29.88,ESE,104,8.8,8.8,97,0.00,,,0.62,0.00,VWS V14.01,2013-05-28 03:31:00,
2013-05-27 22:34:00,60.2,59.3,29.88,SE,128,4.4,8.8,97,0.00,,,0.62,0.00,VWS V14.01,2013-05-28 03:34:00,
2013-05-27 22:35:00,60.2,59.3,29.88,SE,134,5.5,8.8,97,0.00,,,0.62,0.00,VWS V14.01,2013-05-28 03:35:00,
2013-05-27 22:36:00,60.2,59.3,29.88,SE,139,2.2,8.8,97,0.00,,,0.62,0.00,VWS V14.01,2013-05-28 03:36:00,
2013-05-27 22:40:00,60.2,59.3,29.89,SE,146,4.4,8.8,97,0.00,,,0.62,0.00,VWS V14.01,2013-05-28 03:40:00,
2013-05-27 22:41:00,60.2,59.3,29.89,SE,124,2.2,4.4,97,0.00,,,0.62,0.00,VWS V14.01,2013-05-28 03:41:00,
2013-05-27 22:45:00,60.2,59.3,29.88,SE,127,5.5,8.8,97,0.00,,,0.62,0.00,VWS V14.01,2013-05-28 03:45:00,
2013-05-27 22:47:00,60.2,59.3,29.88,SE,137,3.3,8.8,97,0.00,,,0.62,0.00,VWS V14.01,2013-05-28 03:47:00,
2013-05-27 22:50:00,60.2,59.3,29.88,ESE,108,5.5,8.8,97,0.00,,,0.62,0.00,VWS V14.01,2013-05-28 03:50:00,
2013-05-27 22:51:00,60.2,59.3,29.88,East,100,2.2,5.5,97,0.00,,,0.62,0.00,VWS V14.01,2013-05-28 03:51:00,
2013-05-27 22:52:00,60.2,59.3,29.88,East,99,2.2,5.5,97,0.00,,,0.62,0.00,VWS V14.01,2013-05-28 03:52:00,
2013-05-27 22:53:00,60.2,59.3,29.88,SE,133,5.5,5.5,97,0.00,,,0.62,0.00,VWS V14.01,2013-05-28 03:53:00,
2013-05-27 22:55:00,60.2,59.3,29.88,ESE,110,1.1,5.5,97,0.00,,,0.62,0.00,VWS V14.01,2013-05-28 03:55:00,
2013-05-27 22:56:00,60.2,59.3,29.88,ESE,120,4.4,5.5,97,0.00,,,0.62,0.00,VWS V14.01,2013-05-28 03:56:00,
2013-05-27 22:57:00,60.2,59.3,29.88,ESE,104,1.1,5.5,97,0.00,,,0.62,0.00,VWS V14.01,2013-05-28 03:57:00,
2013-05-27 22:58:00,60.2,59.3,29.88,ESE,104,1.1,5.5,97,0.00,,,0.62,0.00,VWS V14.01,2013-05-28 03:58:00,
2013-05-27 22:59:00,60.2,59.3,29.88,ESE,119,3.3,5.5,97,0.00,,,0.62,0.00,VWS V14.01,2013-05-28 03:59:00,
2013-05-27 23:01:00,60.2,59.3,29.88,ESE,122,4.4,4.4,97,0.00,,,0.62,0.00,VWS V14.01,2013-05-28 04:01:00,
2013-05-27 23:02:00,60.2,59.3,29.88,SE,127,3.3,4.4,97,0.00,,,0.62,0.00,VWS V14.01,2013-05-28 04:02:00,
2013-05-27 23:03:00,60.3,59.5,29.88,ESE,111,0.0,5.5,97,0.00,,,0.62,0.00,VWS V14.01,2013-05-28 04:03:00,
2013-05-27 23:07:00,60.3,59.5,29.88,ESE,106,1.1,5.5,97,0.00,,,0.62,0.00,VWS V14.01,2013-05-28 04:07:00,
2013-05-27 23:09:00,60.3,59.5,29.88,ESE,116,1.1,5.5,97,0.00,,,0.62,0.00,VWS V14.01,2013-05-28 04:09:00,
2013-05-27 23:12:00,60.4,59.5,29.89,ESE,116,0.0,0.0,97,0.00,,,0.62,0.00,VWS V14.01,2013-05-28 04:12:00,
2013-05-27 23:13:00,60.3,59.5,29.89,ESE,116,2.2,2.2,97,0.00,,,0.62,0.00,VWS V14.01,2013-05-28 04:13:00,
2013-05-27 23:14:00,60.4,59.5,29.88,SE,139,4.4,5.5,97,0.00,,,0.62,0.00,VWS V14.01,2013-05-28 04:14:00,
2013-05-27 23:17:00,60.5,59.7,29.90,SE,146,0.0,5.5,97,0.00,,,0.62,0.00,VWS V14.01,2013-05-28 04:17:00,
2013-05-27 23:18:00,60.5,59.7,29.91,SE,146,0.0,5.5,97,0.00,,,0.62,0.00,VWS V14.01,2013-05-28 04:18:00,
2013-05-27 23:19:00,60.5,59.7,29.91,SSW,203,2.2,5.5,97,0.00,,,0.62,0.00,VWS V14.01,2013-05-28 04:19:00,
2013-05-27 23:22:00,60.7,59.8,29.92,SSW,204,1.1,3.3,97,0.01,,,0.63,0.00,VWS V14.01,2013-05-28 04:22:00,
2013-05-27 23:23:00,60.7,59.8,29.92,SSW,204,1.1,3.3,97,0.01,,,0.63,0.00,VWS V14.01,2013-05-28 04:23:00,
2013-05-27 23:24:00,60.7,59.8,29.92,SSW,204,0.0,3.3,97,0.01,,,0.63,0.00,VWS V14.01,2013-05-28 04:24:00,
2013-05-27 23:25:00,60.8,60.0,29.92,SSW,204,2.2,3.3,97,0.01,,,0.63,0.00,VWS V14.01,2013-05-28 04:25:00,
2013-05-27 23:28:00,60.8,60.0,29.92,SSW,204,1.1,3.3,97,0.02,,,0.64,0.00,VWS V14.01,2013-05-28 04:28:00,
2013-05-27 23:29:00,60.8,60.0,29.91,SSE,153,4.4,4.4,97,0.02,,,0.64,0.00,VWS V14.01,2013-05-28 04:29:00,
2013-05-27 23:30:00,60.8,60.0,29.91,SSE,157,3.3,4.4,97,0.03,,,0.65,0.00,VWS V14.01,2013-05-28 04:30:00,
2013-05-27 23:33:00,60.8,60.0,29.91,SSE,164,0.0,3.3,97,0.06,,,0.68,0.00,VWS V14.01,2013-05-28 04:33:00,
2013-05-27 23:34:00,60.8,60.0,29.91,SSE,164,0.0,3.3,97,0.06,,,0.68,0.00,VWS V14.01,2013-05-28 04:34:00,
2013-05-27 23:35:00,60.8,60.0,29.92,SSE,164,0.0,3.3,97,0.06,,,0.68,0.00,VWS V14.01,2013-05-28 04:35:00,
2013-05-27 23:37:00,60.9,60.0,29.91,SSE,164,3.3,3.3,97,0.06,,,0.68,0.00,VWS V14.01,2013-05-28 04:37:00,
2013-05-27 23:38:00,60.9,60.0,29.91,SE,132,5.5,6.6,97,0.08,,,0.70,0.00,VWS V14.01,2013-05-28 04:38:00,
2013-05-27 23:39:00,60.9,60.0,29.90,SE,131,6.6,7.7,97,0.08,,,0.70,0.00,VWS V14.01,2013-05-28 04:39:00,
2013-05-27 23:40:00,61.0,60.2,29.90,South,181,6.6,7.7,97,0.11,,,0.73,0.00,VWS V14.01,2013-05-28 04:40:00,
2013-05-27 23:41:00,61.0,60.2,29.90,South,172,2.2,6.6,97,0.12,,,0.74,0.00,VWS V14.01,2013-05-28 04:41:00,
2013-05-27 23:43:00,61.0,60.2,29.90,South,174,2.2,6.6,97,0.12,,,0.74,0.00,VWS V14.01,2013-05-28 04:43:00,
2013-05-27 23:44:00,61.0,60.2,29.90,South,174,4.4,6.6,97,0.12,,,0.74,0.00,VWS V14.01,2013-05-28 04:44:00,
2013-05-27 23:45:00,61.0,60.2,29.90,ESE,112,4.4,7.7,97,0.12,,,0.74,0.00,VWS V14.01,2013-05-28 04:45:00,
2013-05-27 23:46:00,61.1,60.2,29.90,SE,140,4.4,7.7,97,0.12,,,0.74,0.00,VWS V14.01,2013-05-28 04:46:00,
2013-05-27 23:47:00,61.1,60.2,29.90,SE,129,0.0,7.7,97,0.12,,,0.74,0.00,VWS V14.01,2013-05-28 04:47:00,
2013-05-27 23:49:00,61.1,60.2,29.90,SSE,156,2.2,7.7,97,0.12,,,0.74,0.00,VWS V14.01,2013-05-28 04:49:00,
2013-05-27 23:50:00,61.1,60.2,29.90,SSE,167,2.2,7.7,97,0.12,,,0.74,0.00,VWS V14.01,2013-05-28 04:50:00,
2013-05-27 23:51:00,61.1,60.2,29.90,SSE,167,2.2,2.2,97,0.12,,,0.74,0.00,VWS V14.01,2013-05-28 04:51:00,
2013-05-27 23:52:00,61.2,60.3,29.91,SE,145,3.3,3.3,97,0.12,,,0.74,0.00,VWS V14.01,2013-05-28 04:52:00,
2013-05-27 23:54:00,61.3,60.7,29.91,SSE,153,0.0,6.6,98,0.12,,,0.74,0.00,VWS V14.01,2013-05-28 04:54:00,
2013-05-27 23:56:00,61.4,60.8,29.91,SSE,153,0.0,6.6,98,0.12,,,0.74,0.00,VWS V14.01,2013-05-28 04:56:00,
2013-05-27 23:58:00,61.4,60.8,29.91,ENE,77,1.1,6.6,98,0.12,,,0.74,0.00,VWS V14.01,2013-05-28 04:58:00,
2013-05-27 23:59:00,61.4,60.8,29.91,SSE,154,4.4,6.6,98,0.12,,,0.74,0.00,VWS V14.01,2013-05-28 04:59:00,